<?xml version="1.0" encoding="UTF-8" standalone="no" ?>
<gpx xmlns="http://www.topografix.com/GPX/1/1" xmlns:xsi="http://www.w3.org/2001/XMLSchema-instance" xsi:schemaLocation="http://www.topografix.com/GPX/1/1 http://www.topografix.com/GPX/1/1/gpx.xsd" version="1.1" creator="VisuGPX - https://www.visugpx.com">
  <metadata>
    <name>Praz Vechin / les Cent Virages </name>
  </metadata>
  <trk>
    <name><![CDATA[2010-08-19-praz-vechin]]></name>
    <trkseg>
      <trkpt lat="45.76834" lon="6.37415">
        <ele>446.1</ele>
        <time>2010-08-19T08:16:37Z</time>
      </trkpt>
      <trkpt lat="45.76829" lon="6.37448">
        <ele>445.4</ele>
        <time>2010-08-19T08:17:05Z</time>
      </trkpt>
      <trkpt lat="45.76826" lon="6.37478">
        <ele>444.5</ele>
        <time>2010-08-19T08:17:12Z</time>
      </trkpt>
      <trkpt lat="45.76826" lon="6.375">
        <ele>444</ele>
        <time>2010-08-19T08:17:16Z</time>
      </trkpt>
      <trkpt lat="45.76828" lon="6.37513">
        <ele>443.9</ele>
        <time>2010-08-19T08:17:18Z</time>
      </trkpt>
      <trkpt lat="45.7683" lon="6.37545">
        <ele>443.5</ele>
        <time>2010-08-19T08:17:22Z</time>
      </trkpt>
      <trkpt lat="45.76831" lon="6.37563">
        <ele>443.6</ele>
        <time>2010-08-19T08:17:24Z</time>
      </trkpt>
      <trkpt lat="45.76832" lon="6.37596">
        <ele>443.5</ele>
        <time>2010-08-19T08:17:28Z</time>
      </trkpt>
      <trkpt lat="45.76832" lon="6.37612">
        <ele>443.4</ele>
        <time>2010-08-19T08:17:30Z</time>
      </trkpt>
      <trkpt lat="45.76833" lon="6.37637">
        <ele>443.4</ele>
        <time>2010-08-19T08:17:33Z</time>
      </trkpt>
      <trkpt lat="45.76833" lon="6.37661">
        <ele>443.3</ele>
        <time>2010-08-19T08:17:36Z</time>
      </trkpt>
      <trkpt lat="45.76835" lon="6.37684">
        <ele>443.4</ele>
        <time>2010-08-19T08:17:39Z</time>
      </trkpt>
      <trkpt lat="45.76837" lon="6.37699">
        <ele>443.4</ele>
        <time>2010-08-19T08:17:41Z</time>
      </trkpt>
      <trkpt lat="45.76842" lon="6.37722">
        <ele>443.9</ele>
        <time>2010-08-19T08:17:44Z</time>
      </trkpt>
      <trkpt lat="45.76846" lon="6.37747">
        <ele>444.6</ele>
        <time>2010-08-19T08:17:47Z</time>
      </trkpt>
      <trkpt lat="45.76848" lon="6.37767">
        <ele>444.9</ele>
        <time>2010-08-19T08:17:49Z</time>
      </trkpt>
      <trkpt lat="45.7685" lon="6.37796">
        <ele>445.4</ele>
        <time>2010-08-19T08:17:52Z</time>
      </trkpt>
      <trkpt lat="45.76849" lon="6.37824">
        <ele>445.9</ele>
        <time>2010-08-19T08:17:55Z</time>
      </trkpt>
      <trkpt lat="45.76845" lon="6.3784">
        <ele>445.7</ele>
        <time>2010-08-19T08:17:57Z</time>
      </trkpt>
      <trkpt lat="45.76833" lon="6.37865">
        <ele>444.8</ele>
        <time>2010-08-19T08:18:01Z</time>
      </trkpt>
      <trkpt lat="45.76825" lon="6.37893">
        <ele>444.6</ele>
        <time>2010-08-19T08:18:05Z</time>
      </trkpt>
      <trkpt lat="45.76822" lon="6.37925">
        <ele>445.3</ele>
        <time>2010-08-19T08:18:09Z</time>
      </trkpt>
      <trkpt lat="45.76823" lon="6.37948">
        <ele>446.1</ele>
        <time>2010-08-19T08:18:12Z</time>
      </trkpt>
      <trkpt lat="45.76827" lon="6.37975">
        <ele>446.7</ele>
        <time>2010-08-19T08:18:16Z</time>
      </trkpt>
      <trkpt lat="45.76827" lon="6.37989">
        <ele>446.6</ele>
        <time>2010-08-19T08:18:18Z</time>
      </trkpt>
      <trkpt lat="45.76821" lon="6.38024">
        <ele>444.9</ele>
        <time>2010-08-19T08:18:23Z</time>
      </trkpt>
      <trkpt lat="45.76818" lon="6.38031">
        <ele>444.4</ele>
        <time>2010-08-19T08:18:24Z</time>
      </trkpt>
      <trkpt lat="45.76809" lon="6.38064">
        <ele>442.9</ele>
        <time>2010-08-19T08:18:29Z</time>
      </trkpt>
      <trkpt lat="45.76804" lon="6.38087">
        <ele>442.3</ele>
        <time>2010-08-19T08:18:33Z</time>
      </trkpt>
      <trkpt lat="45.76807" lon="6.38136">
        <ele>443.6</ele>
        <time>2010-08-19T08:18:50Z</time>
      </trkpt>
      <trkpt lat="45.76814" lon="6.38178">
        <ele>447.2</ele>
        <time>2010-08-19T08:19:07Z</time>
      </trkpt>
      <trkpt lat="45.76815" lon="6.38189">
        <ele>448</ele>
        <time>2010-08-19T08:19:11Z</time>
      </trkpt>
      <trkpt lat="45.76822" lon="6.38225">
        <ele>450.8</ele>
        <time>2010-08-19T08:19:31Z</time>
      </trkpt>
      <trkpt lat="45.76833" lon="6.38259">
        <ele>454</ele>
        <time>2010-08-19T08:19:42Z</time>
      </trkpt>
      <trkpt lat="45.76845" lon="6.38298">
        <ele>456.9</ele>
        <time>2010-08-19T08:19:55Z</time>
      </trkpt>
      <trkpt lat="45.76852" lon="6.38318">
        <ele>457.6</ele>
        <time>2010-08-19T08:20:02Z</time>
      </trkpt>
      <trkpt lat="45.7686" lon="6.3835">
        <ele>457.5</ele>
        <time>2010-08-19T08:20:14Z</time>
      </trkpt>
      <trkpt lat="45.76867" lon="6.38382">
        <ele>457.1</ele>
        <time>2010-08-19T08:20:34Z</time>
      </trkpt>
      <trkpt lat="45.76859" lon="6.38402">
        <ele>456.5</ele>
        <time>2010-08-19T08:25:11Z</time>
      </trkpt>
      <trkpt lat="45.76864" lon="6.38423">
        <ele>457.4</ele>
        <time>2010-08-19T08:27:29Z</time>
      </trkpt>
      <trkpt lat="45.76844" lon="6.38436">
        <ele>455.6</ele>
        <time>2010-08-19T08:27:36Z</time>
      </trkpt>
      <trkpt lat="45.76828" lon="6.38453">
        <ele>454.3</ele>
        <time>2010-08-19T08:27:42Z</time>
      </trkpt>
      <trkpt lat="45.76816" lon="6.38475">
        <ele>454.4</ele>
        <time>2010-08-19T08:27:48Z</time>
      </trkpt>
      <trkpt lat="45.7681" lon="6.38484">
        <ele>454.3</ele>
        <time>2010-08-19T08:27:51Z</time>
      </trkpt>
      <trkpt lat="45.76803" lon="6.38501">
        <ele>454.6</ele>
        <time>2010-08-19T08:27:57Z</time>
      </trkpt>
      <trkpt lat="45.76817" lon="6.38539">
        <ele>458.2</ele>
        <time>2010-08-19T08:28:09Z</time>
      </trkpt>
      <trkpt lat="45.76826" lon="6.38577">
        <ele>462.8</ele>
        <time>2010-08-19T08:28:21Z</time>
      </trkpt>
      <trkpt lat="45.76828" lon="6.3859">
        <ele>464.2</ele>
        <time>2010-08-19T08:28:25Z</time>
      </trkpt>
      <trkpt lat="45.76824" lon="6.38623">
        <ele>467.1</ele>
        <time>2010-08-19T08:28:35Z</time>
      </trkpt>
      <trkpt lat="45.76817" lon="6.38643">
        <ele>467.8</ele>
        <time>2010-08-19T08:28:42Z</time>
      </trkpt>
      <trkpt lat="45.76816" lon="6.38663">
        <ele>468.8</ele>
        <time>2010-08-19T08:28:48Z</time>
      </trkpt>
      <trkpt lat="45.76821" lon="6.38698">
        <ele>471.2</ele>
        <time>2010-08-19T08:29:00Z</time>
      </trkpt>
      <trkpt lat="45.76828" lon="6.38734">
        <ele>474.9</ele>
        <time>2010-08-19T08:29:12Z</time>
      </trkpt>
      <trkpt lat="45.7682" lon="6.38762">
        <ele>477.3</ele>
        <time>2010-08-19T08:29:26Z</time>
      </trkpt>
      <trkpt lat="45.76825" lon="6.38783">
        <ele>479.9</ele>
        <time>2010-08-19T08:29:34Z</time>
      </trkpt>
      <trkpt lat="45.76822" lon="6.38806">
        <ele>481.5</ele>
        <time>2010-08-19T08:29:45Z</time>
      </trkpt>
      <trkpt lat="45.7683" lon="6.38826">
        <ele>483.5</ele>
        <time>2010-08-19T08:29:53Z</time>
      </trkpt>
      <trkpt lat="45.76831" lon="6.38838">
        <ele>484.4</ele>
        <time>2010-08-19T08:29:57Z</time>
      </trkpt>
      <trkpt lat="45.76821" lon="6.38858">
        <ele>484.9</ele>
        <time>2010-08-19T08:30:05Z</time>
      </trkpt>
      <trkpt lat="45.7681" lon="6.38896">
        <ele>487.1</ele>
        <time>2010-08-19T08:30:17Z</time>
      </trkpt>
      <trkpt lat="45.76809" lon="6.38899">
        <ele>487.4</ele>
        <time>2010-08-19T08:30:18Z</time>
      </trkpt>
      <trkpt lat="45.76797" lon="6.38928">
        <ele>489.3</ele>
        <time>2010-08-19T08:30:30Z</time>
      </trkpt>
      <trkpt lat="45.76799" lon="6.38939">
        <ele>490.4</ele>
        <time>2010-08-19T08:30:46Z</time>
      </trkpt>
      <trkpt lat="45.76811" lon="6.38954">
        <ele>492.3</ele>
        <time>2010-08-19T08:30:55Z</time>
      </trkpt>
      <trkpt lat="45.76826" lon="6.38965">
        <ele>494</ele>
        <time>2010-08-19T08:31:03Z</time>
      </trkpt>
      <trkpt lat="45.76832" lon="6.38987">
        <ele>496.8</ele>
        <time>2010-08-19T08:31:12Z</time>
      </trkpt>
      <trkpt lat="45.76844" lon="6.39007">
        <ele>500</ele>
        <time>2010-08-19T08:31:23Z</time>
      </trkpt>
      <trkpt lat="45.76847" lon="6.39029">
        <ele>503</ele>
        <time>2010-08-19T08:31:34Z</time>
      </trkpt>
      <trkpt lat="45.76859" lon="6.39061">
        <ele>508</ele>
        <time>2010-08-19T08:31:50Z</time>
      </trkpt>
      <trkpt lat="45.76859" lon="6.39084">
        <ele>511</ele>
        <time>2010-08-19T08:32:01Z</time>
      </trkpt>
      <trkpt lat="45.7685" lon="6.39105">
        <ele>512.8</ele>
        <time>2010-08-19T08:32:31Z</time>
      </trkpt>
      <trkpt lat="45.76836" lon="6.39148">
        <ele>515.3</ele>
        <time>2010-08-19T08:32:51Z</time>
      </trkpt>
      <trkpt lat="45.76848" lon="6.39177">
        <ele>518.4</ele>
        <time>2010-08-19T08:33:04Z</time>
      </trkpt>
      <trkpt lat="45.76848" lon="6.39189">
        <ele>519.2</ele>
        <time>2010-08-19T08:33:09Z</time>
      </trkpt>
      <trkpt lat="45.76837" lon="6.39215">
        <ele>519.9</ele>
        <time>2010-08-19T08:33:19Z</time>
      </trkpt>
      <trkpt lat="45.76848" lon="6.39233">
        <ele>522.4</ele>
        <time>2010-08-19T08:33:31Z</time>
      </trkpt>
      <trkpt lat="45.76855" lon="6.39239">
        <ele>523.6</ele>
        <time>2010-08-19T08:33:51Z</time>
      </trkpt>
      <trkpt lat="45.76873" lon="6.39237">
        <ele>525.2</ele>
        <time>2010-08-19T08:34:04Z</time>
      </trkpt>
      <trkpt lat="45.7688" lon="6.39234">
        <ele>525.9</ele>
        <time>2010-08-19T08:34:09Z</time>
      </trkpt>
      <trkpt lat="45.76903" lon="6.39232">
        <ele>528.7</ele>
        <time>2010-08-19T08:34:21Z</time>
      </trkpt>
      <trkpt lat="45.76919" lon="6.3923">
        <ele>530.6</ele>
        <time>2010-08-19T08:34:36Z</time>
      </trkpt>
      <trkpt lat="45.76935" lon="6.39228">
        <ele>532.5</ele>
        <time>2010-08-19T08:34:46Z</time>
      </trkpt>
      <trkpt lat="45.76943" lon="6.39224">
        <ele>533.2</ele>
        <time>2010-08-19T08:34:50Z</time>
      </trkpt>
      <trkpt lat="45.76965" lon="6.39218">
        <ele>535.5</ele>
        <time>2010-08-19T08:35:00Z</time>
      </trkpt>
      <trkpt lat="45.76989" lon="6.39211">
        <ele>537.5</ele>
        <time>2010-08-19T08:35:09Z</time>
      </trkpt>
      <trkpt lat="45.77002" lon="6.3922">
        <ele>539.8</ele>
        <time>2010-08-19T08:35:16Z</time>
      </trkpt>
      <trkpt lat="45.76993" lon="6.39248">
        <ele>541.3</ele>
        <time>2010-08-19T08:35:32Z</time>
      </trkpt>
      <trkpt lat="45.76981" lon="6.39277">
        <ele>542.5</ele>
        <time>2010-08-19T08:35:42Z</time>
      </trkpt>
      <trkpt lat="45.7697" lon="6.39306">
        <ele>543.8</ele>
        <time>2010-08-19T08:35:51Z</time>
      </trkpt>
      <trkpt lat="45.76964" lon="6.3933">
        <ele>545.3</ele>
        <time>2010-08-19T08:35:58Z</time>
      </trkpt>
      <trkpt lat="45.76959" lon="6.39356">
        <ele>547.2</ele>
        <time>2010-08-19T08:36:06Z</time>
      </trkpt>
      <trkpt lat="45.76952" lon="6.39377">
        <ele>548.3</ele>
        <time>2010-08-19T08:36:12Z</time>
      </trkpt>
      <trkpt lat="45.76944" lon="6.39411">
        <ele>550.7</ele>
        <time>2010-08-19T08:36:21Z</time>
      </trkpt>
      <trkpt lat="45.76934" lon="6.39456">
        <ele>554.1</ele>
        <time>2010-08-19T08:36:33Z</time>
      </trkpt>
      <trkpt lat="45.76926" lon="6.39488">
        <ele>555.5</ele>
        <time>2010-08-19T08:36:42Z</time>
      </trkpt>
      <trkpt lat="45.76923" lon="6.39498">
        <ele>555.7</ele>
        <time>2010-08-19T08:36:45Z</time>
      </trkpt>
      <trkpt lat="45.76917" lon="6.39522">
        <ele>556.4</ele>
        <time>2010-08-19T08:36:51Z</time>
      </trkpt>
      <trkpt lat="45.76919" lon="6.39546">
        <ele>558.1</ele>
        <time>2010-08-19T08:36:57Z</time>
      </trkpt>
      <trkpt lat="45.76929" lon="6.3955">
        <ele>560</ele>
        <time>2010-08-19T08:37:01Z</time>
      </trkpt>
      <trkpt lat="45.76942" lon="6.39543">
        <ele>561.5</ele>
        <time>2010-08-19T08:37:07Z</time>
      </trkpt>
      <trkpt lat="45.76951" lon="6.39562">
        <ele>564.1</ele>
        <time>2010-08-19T08:37:17Z</time>
      </trkpt>
      <trkpt lat="45.76949" lon="6.39586">
        <ele>565.2</ele>
        <time>2010-08-19T08:37:30Z</time>
      </trkpt>
      <trkpt lat="45.76954" lon="6.39607">
        <ele>567.3</ele>
        <time>2010-08-19T08:37:41Z</time>
      </trkpt>
      <trkpt lat="45.76963" lon="6.39627">
        <ele>570</ele>
        <time>2010-08-19T08:38:07Z</time>
      </trkpt>
      <trkpt lat="45.76972" lon="6.39672">
        <ele>575.9</ele>
        <time>2010-08-19T08:38:38Z</time>
      </trkpt>
      <trkpt lat="45.76978" lon="6.39682">
        <ele>577.9</ele>
        <time>2010-08-19T08:38:48Z</time>
      </trkpt>
      <trkpt lat="45.76994" lon="6.3969">
        <ele>581.5</ele>
        <time>2010-08-19T08:39:05Z</time>
      </trkpt>
      <trkpt lat="45.77003" lon="6.3969">
        <ele>583.1</ele>
        <time>2010-08-19T08:39:13Z</time>
      </trkpt>
      <trkpt lat="45.77037" lon="6.39699">
        <ele>590.1</ele>
        <time>2010-08-19T08:39:43Z</time>
      </trkpt>
      <trkpt lat="45.77054" lon="6.39699">
        <ele>592.9</ele>
        <time>2010-08-19T08:39:56Z</time>
      </trkpt>
      <trkpt lat="45.77072" lon="6.39702">
        <ele>595.9</ele>
        <time>2010-08-19T08:40:15Z</time>
      </trkpt>
      <trkpt lat="45.77094" lon="6.39708">
        <ele>600.1</ele>
        <time>2010-08-19T08:40:34Z</time>
      </trkpt>
      <trkpt lat="45.77106" lon="6.39721">
        <ele>603.1</ele>
        <time>2010-08-19T08:40:54Z</time>
      </trkpt>
      <trkpt lat="45.77125" lon="6.39698">
        <ele>603.5</ele>
        <time>2010-08-19T08:41:07Z</time>
      </trkpt>
      <trkpt lat="45.77132" lon="6.39691">
        <ele>603.8</ele>
        <time>2010-08-19T08:41:14Z</time>
      </trkpt>
      <trkpt lat="45.77152" lon="6.39715">
        <ele>609.7</ele>
        <time>2010-08-19T08:41:41Z</time>
      </trkpt>
      <trkpt lat="45.7716" lon="6.39715">
        <ele>611.1</ele>
        <time>2010-08-19T08:41:47Z</time>
      </trkpt>
      <trkpt lat="45.77175" lon="6.39707">
        <ele>612.6</ele>
        <time>2010-08-19T08:41:58Z</time>
      </trkpt>
      <trkpt lat="45.7719" lon="6.39696">
        <ele>613.7</ele>
        <time>2010-08-19T08:42:09Z</time>
      </trkpt>
      <trkpt lat="45.77198" lon="6.39694">
        <ele>614.8</ele>
        <time>2010-08-19T08:42:21Z</time>
      </trkpt>
      <trkpt lat="45.77212" lon="6.3972">
        <ele>620</ele>
        <time>2010-08-19T08:42:52Z</time>
      </trkpt>
      <trkpt lat="45.77208" lon="6.39732">
        <ele>620.5</ele>
        <time>2010-08-19T08:42:58Z</time>
      </trkpt>
      <trkpt lat="45.77197" lon="6.39761">
        <ele>621.8</ele>
        <time>2010-08-19T08:43:12Z</time>
      </trkpt>
      <trkpt lat="45.7719" lon="6.39782">
        <ele>622.7</ele>
        <time>2010-08-19T08:43:23Z</time>
      </trkpt>
      <trkpt lat="45.7718" lon="6.39804">
        <ele>622.9</ele>
        <time>2010-08-19T08:43:36Z</time>
      </trkpt>
      <trkpt lat="45.77176" lon="6.39826">
        <ele>624</ele>
        <time>2010-08-19T08:43:57Z</time>
      </trkpt>
      <trkpt lat="45.77168" lon="6.39858">
        <ele>624.8</ele>
        <time>2010-08-19T08:44:14Z</time>
      </trkpt>
      <trkpt lat="45.77167" lon="6.39881">
        <ele>626.6</ele>
        <time>2010-08-19T08:44:33Z</time>
      </trkpt>
      <trkpt lat="45.77152" lon="6.3992">
        <ele>626.8</ele>
        <time>2010-08-19T08:44:50Z</time>
      </trkpt>
      <trkpt lat="45.77148" lon="6.39939">
        <ele>627.6</ele>
        <time>2010-08-19T08:44:57Z</time>
      </trkpt>
      <trkpt lat="45.77139" lon="6.3996">
        <ele>627.7</ele>
        <time>2010-08-19T08:45:05Z</time>
      </trkpt>
      <trkpt lat="45.77117" lon="6.39966">
        <ele>624.4</ele>
        <time>2010-08-19T08:45:14Z</time>
      </trkpt>
      <trkpt lat="45.77105" lon="6.39977">
        <ele>623.5</ele>
        <time>2010-08-19T08:45:18Z</time>
      </trkpt>
      <trkpt lat="45.77091" lon="6.40002">
        <ele>623.8</ele>
        <time>2010-08-19T08:45:25Z</time>
      </trkpt>
      <trkpt lat="45.77076" lon="6.40021">
        <ele>623</ele>
        <time>2010-08-19T08:45:31Z</time>
      </trkpt>
      <trkpt lat="45.77057" lon="6.40047">
        <ele>622.5</ele>
        <time>2010-08-19T08:45:39Z</time>
      </trkpt>
      <trkpt lat="45.7706" lon="6.40079">
        <ele>628.7</ele>
        <time>2010-08-19T08:45:49Z</time>
      </trkpt>
      <trkpt lat="45.77062" lon="6.40104">
        <ele>633.1</ele>
        <time>2010-08-19T08:45:57Z</time>
      </trkpt>
      <trkpt lat="45.77059" lon="6.40116">
        <ele>634.7</ele>
        <time>2010-08-19T08:46:01Z</time>
      </trkpt>
      <trkpt lat="45.77047" lon="6.40133">
        <ele>634.9</ele>
        <time>2010-08-19T08:46:09Z</time>
      </trkpt>
      <trkpt lat="45.77024" lon="6.40167">
        <ele>634.9</ele>
        <time>2010-08-19T08:46:24Z</time>
      </trkpt>
      <trkpt lat="45.7701" lon="6.40202">
        <ele>636.8</ele>
        <time>2010-08-19T08:46:36Z</time>
      </trkpt>
      <trkpt lat="45.77007" lon="6.40225">
        <ele>639</ele>
        <time>2010-08-19T08:46:43Z</time>
      </trkpt>
      <trkpt lat="45.77012" lon="6.4024">
        <ele>641.6</ele>
        <time>2010-08-19T08:46:48Z</time>
      </trkpt>
      <trkpt lat="45.77019" lon="6.40256">
        <ele>644.8</ele>
        <time>2010-08-19T08:46:54Z</time>
      </trkpt>
      <trkpt lat="45.77024" lon="6.40275">
        <ele>647.9</ele>
        <time>2010-08-19T08:47:00Z</time>
      </trkpt>
      <trkpt lat="45.77023" lon="6.40296">
        <ele>649.8</ele>
        <time>2010-08-19T08:47:06Z</time>
      </trkpt>
      <trkpt lat="45.77018" lon="6.40327">
        <ele>650.4</ele>
        <time>2010-08-19T08:47:15Z</time>
      </trkpt>
      <trkpt lat="45.77011" lon="6.40362">
        <ele>650.8</ele>
        <time>2010-08-19T08:47:27Z</time>
      </trkpt>
      <trkpt lat="45.77002" lon="6.40389">
        <ele>651.6</ele>
        <time>2010-08-19T08:47:36Z</time>
      </trkpt>
      <trkpt lat="45.76995" lon="6.40406">
        <ele>652.3</ele>
        <time>2010-08-19T08:47:42Z</time>
      </trkpt>
      <trkpt lat="45.76978" lon="6.40444">
        <ele>654.1</ele>
        <time>2010-08-19T08:47:56Z</time>
      </trkpt>
      <trkpt lat="45.76966" lon="6.40468">
        <ele>655.1</ele>
        <time>2010-08-19T08:48:05Z</time>
      </trkpt>
      <trkpt lat="45.76952" lon="6.40504">
        <ele>658.4</ele>
        <time>2010-08-19T08:48:17Z</time>
      </trkpt>
      <trkpt lat="45.76942" lon="6.40531">
        <ele>660.5</ele>
        <time>2010-08-19T08:48:26Z</time>
      </trkpt>
      <trkpt lat="45.76927" lon="6.4057">
        <ele>662.3</ele>
        <time>2010-08-19T08:48:38Z</time>
      </trkpt>
      <trkpt lat="45.7692" lon="6.40587">
        <ele>662.7</ele>
        <time>2010-08-19T08:48:44Z</time>
      </trkpt>
      <trkpt lat="45.7691" lon="6.40618">
        <ele>664</ele>
        <time>2010-08-19T08:48:54Z</time>
      </trkpt>
      <trkpt lat="45.76912" lon="6.4065">
        <ele>666.6</ele>
        <time>2010-08-19T08:49:03Z</time>
      </trkpt>
      <trkpt lat="45.76915" lon="6.4066">
        <ele>667.7</ele>
        <time>2010-08-19T08:49:06Z</time>
      </trkpt>
      <trkpt lat="45.76927" lon="6.40666">
        <ele>671.2</ele>
        <time>2010-08-19T08:49:12Z</time>
      </trkpt>
      <trkpt lat="45.76933" lon="6.40659">
        <ele>672.3</ele>
        <time>2010-08-19T08:49:15Z</time>
      </trkpt>
      <trkpt lat="45.76946" lon="6.40634">
        <ele>674.4</ele>
        <time>2010-08-19T08:49:24Z</time>
      </trkpt>
      <trkpt lat="45.76964" lon="6.40613">
        <ele>676.6</ele>
        <time>2010-08-19T08:49:33Z</time>
      </trkpt>
      <trkpt lat="45.7697" lon="6.40604">
        <ele>676.7</ele>
        <time>2010-08-19T08:49:36Z</time>
      </trkpt>
      <trkpt lat="45.76986" lon="6.40582">
        <ele>677.3</ele>
        <time>2010-08-19T08:49:45Z</time>
      </trkpt>
      <trkpt lat="45.77002" lon="6.40562">
        <ele>678.1</ele>
        <time>2010-08-19T08:49:54Z</time>
      </trkpt>
      <trkpt lat="45.7702" lon="6.40545">
        <ele>679.8</ele>
        <time>2010-08-19T08:50:03Z</time>
      </trkpt>
      <trkpt lat="45.77034" lon="6.40552">
        <ele>683.8</ele>
        <time>2010-08-19T08:50:10Z</time>
      </trkpt>
      <trkpt lat="45.77032" lon="6.40573">
        <ele>686</ele>
        <time>2010-08-19T08:50:16Z</time>
      </trkpt>
      <trkpt lat="45.77023" lon="6.40612">
        <ele>689.3</ele>
        <time>2010-08-19T08:50:28Z</time>
      </trkpt>
      <trkpt lat="45.77024" lon="6.40633">
        <ele>691.9</ele>
        <time>2010-08-19T08:50:34Z</time>
      </trkpt>
      <trkpt lat="45.77032" lon="6.40663">
        <ele>696</ele>
        <time>2010-08-19T08:50:43Z</time>
      </trkpt>
      <trkpt lat="45.77036" lon="6.40672">
        <ele>697.5</ele>
        <time>2010-08-19T08:50:46Z</time>
      </trkpt>
      <trkpt lat="45.77044" lon="6.40702">
        <ele>701.9</ele>
        <time>2010-08-19T08:50:55Z</time>
      </trkpt>
      <trkpt lat="45.77055" lon="6.40739">
        <ele>705.1</ele>
        <time>2010-08-19T08:51:07Z</time>
      </trkpt>
      <trkpt lat="45.77067" lon="6.40777">
        <ele>707.7</ele>
        <time>2010-08-19T08:51:19Z</time>
      </trkpt>
      <trkpt lat="45.77074" lon="6.40797">
        <ele>709.2</ele>
        <time>2010-08-19T08:51:25Z</time>
      </trkpt>
      <trkpt lat="45.7708" lon="6.40816">
        <ele>711.2</ele>
        <time>2010-08-19T08:51:31Z</time>
      </trkpt>
      <trkpt lat="45.77089" lon="6.40845">
        <ele>713.7</ele>
        <time>2010-08-19T08:51:40Z</time>
      </trkpt>
      <trkpt lat="45.77095" lon="6.40882">
        <ele>715.7</ele>
        <time>2010-08-19T08:51:52Z</time>
      </trkpt>
      <trkpt lat="45.77091" lon="6.40902">
        <ele>715</ele>
        <time>2010-08-19T08:51:59Z</time>
      </trkpt>
      <trkpt lat="45.77091" lon="6.40921">
        <ele>714.7</ele>
        <time>2010-08-19T08:52:05Z</time>
      </trkpt>
      <trkpt lat="45.771" lon="6.40943">
        <ele>715.9</ele>
        <time>2010-08-19T08:52:13Z</time>
      </trkpt>
      <trkpt lat="45.77112" lon="6.40957">
        <ele>717.8</ele>
        <time>2010-08-19T08:52:20Z</time>
      </trkpt>
      <trkpt lat="45.77116" lon="6.40969">
        <ele>718.3</ele>
        <time>2010-08-19T08:52:24Z</time>
      </trkpt>
      <trkpt lat="45.77117" lon="6.40994">
        <ele>718.2</ele>
        <time>2010-08-19T08:52:32Z</time>
      </trkpt>
      <trkpt lat="45.77121" lon="6.41041">
        <ele>718.4</ele>
        <time>2010-08-19T08:52:47Z</time>
      </trkpt>
      <trkpt lat="45.77125" lon="6.41065">
        <ele>721</ele>
        <time>2010-08-19T08:52:55Z</time>
      </trkpt>
      <trkpt lat="45.77128" lon="6.41114">
        <ele>725.8</ele>
        <time>2010-08-19T08:53:11Z</time>
      </trkpt>
      <trkpt lat="45.7713" lon="6.4115">
        <ele>728.1</ele>
        <time>2010-08-19T08:53:23Z</time>
      </trkpt>
      <trkpt lat="45.77133" lon="6.41174">
        <ele>729.8</ele>
        <time>2010-08-19T08:53:31Z</time>
      </trkpt>
      <trkpt lat="45.77133" lon="6.41198">
        <ele>730.9</ele>
        <time>2010-08-19T08:53:39Z</time>
      </trkpt>
      <trkpt lat="45.77132" lon="6.41235">
        <ele>733.7</ele>
        <time>2010-08-19T08:53:51Z</time>
      </trkpt>
      <trkpt lat="45.77133" lon="6.41259">
        <ele>736.9</ele>
        <time>2010-08-19T08:54:00Z</time>
      </trkpt>
      <trkpt lat="45.77143" lon="6.41247">
        <ele>738.4</ele>
        <time>2010-08-19T08:54:07Z</time>
      </trkpt>
      <trkpt lat="45.77148" lon="6.41215">
        <ele>736.4</ele>
        <time>2010-08-19T08:54:17Z</time>
      </trkpt>
      <trkpt lat="45.77156" lon="6.41188">
        <ele>736.8</ele>
        <time>2010-08-19T08:54:26Z</time>
      </trkpt>
      <trkpt lat="45.77162" lon="6.41171">
        <ele>737.5</ele>
        <time>2010-08-19T08:54:32Z</time>
      </trkpt>
      <trkpt lat="45.7717" lon="6.41155">
        <ele>738.7</ele>
        <time>2010-08-19T08:54:38Z</time>
      </trkpt>
      <trkpt lat="45.77186" lon="6.41128">
        <ele>740.9</ele>
        <time>2010-08-19T08:54:49Z</time>
      </trkpt>
      <trkpt lat="45.77197" lon="6.41116">
        <ele>742.6</ele>
        <time>2010-08-19T08:54:55Z</time>
      </trkpt>
      <trkpt lat="45.77227" lon="6.41093">
        <ele>747.4</ele>
        <time>2010-08-19T08:55:11Z</time>
      </trkpt>
      <trkpt lat="45.77247" lon="6.41082">
        <ele>751.2</ele>
        <time>2010-08-19T08:55:23Z</time>
      </trkpt>
      <trkpt lat="45.77263" lon="6.41086">
        <ele>755.1</ele>
        <time>2010-08-19T08:55:31Z</time>
      </trkpt>
      <trkpt lat="45.77284" lon="6.41102">
        <ele>761.3</ele>
        <time>2010-08-19T08:55:43Z</time>
      </trkpt>
      <trkpt lat="45.77299" lon="6.41101">
        <ele>765.8</ele>
        <time>2010-08-19T08:55:51Z</time>
      </trkpt>
      <trkpt lat="45.77316" lon="6.41077">
        <ele>771.1</ele>
        <time>2010-08-19T08:56:03Z</time>
      </trkpt>
      <trkpt lat="45.77319" lon="6.41064">
        <ele>772</ele>
        <time>2010-08-19T08:56:08Z</time>
      </trkpt>
      <trkpt lat="45.77317" lon="6.41032">
        <ele>770.4</ele>
        <time>2010-08-19T08:56:19Z</time>
      </trkpt>
      <trkpt lat="45.7732" lon="6.40998">
        <ele>771.9</ele>
        <time>2010-08-19T08:56:32Z</time>
      </trkpt>
      <trkpt lat="45.77316" lon="6.40965">
        <ele>770.2</ele>
        <time>2010-08-19T08:56:45Z</time>
      </trkpt>
      <trkpt lat="45.77317" lon="6.40943">
        <ele>770.8</ele>
        <time>2010-08-19T08:56:53Z</time>
      </trkpt>
      <trkpt lat="45.77324" lon="6.40921">
        <ele>773.7</ele>
        <time>2010-08-19T08:57:01Z</time>
      </trkpt>
      <trkpt lat="45.77329" lon="6.40897">
        <ele>775.8</ele>
        <time>2010-08-19T08:57:09Z</time>
      </trkpt>
      <trkpt lat="45.7734" lon="6.40857">
        <ele>780.4</ele>
        <time>2010-08-19T08:57:23Z</time>
      </trkpt>
      <trkpt lat="45.77344" lon="6.40822">
        <ele>781.8</ele>
        <time>2010-08-19T08:57:36Z</time>
      </trkpt>
      <trkpt lat="45.77346" lon="6.40809">
        <ele>782.5</ele>
        <time>2010-08-19T08:57:41Z</time>
      </trkpt>
      <trkpt lat="45.77356" lon="6.40789">
        <ele>785.7</ele>
        <time>2010-08-19T08:57:51Z</time>
      </trkpt>
      <trkpt lat="45.77369" lon="6.40773">
        <ele>788.8</ele>
        <time>2010-08-19T08:58:00Z</time>
      </trkpt>
      <trkpt lat="45.77382" lon="6.40753">
        <ele>790.1</ele>
        <time>2010-08-19T08:58:10Z</time>
      </trkpt>
      <trkpt lat="45.774" lon="6.40737">
        <ele>791.2</ele>
        <time>2010-08-19T08:58:22Z</time>
      </trkpt>
      <trkpt lat="45.77415" lon="6.40732">
        <ele>793</ele>
        <time>2010-08-19T08:58:30Z</time>
      </trkpt>
      <trkpt lat="45.77437" lon="6.40712">
        <ele>792.8</ele>
        <time>2010-08-19T08:58:42Z</time>
      </trkpt>
      <trkpt lat="45.77457" lon="6.40698">
        <ele>793.4</ele>
        <time>2010-08-19T08:58:52Z</time>
      </trkpt>
      <trkpt lat="45.77464" lon="6.40692">
        <ele>793.5</ele>
        <time>2010-08-19T08:58:56Z</time>
      </trkpt>
      <trkpt lat="45.77477" lon="6.40676">
        <ele>793.2</ele>
        <time>2010-08-19T08:59:04Z</time>
      </trkpt>
      <trkpt lat="45.77492" lon="6.40682">
        <ele>796.6</ele>
        <time>2010-08-19T08:59:23Z</time>
      </trkpt>
      <trkpt lat="45.77485" lon="6.4071">
        <ele>799.9</ele>
        <time>2010-08-19T08:59:48Z</time>
      </trkpt>
      <trkpt lat="45.77468" lon="6.40735">
        <ele>802.3</ele>
        <time>2010-08-19T09:00:01Z</time>
      </trkpt>
      <trkpt lat="45.7745" lon="6.40759">
        <ele>804.4</ele>
        <time>2010-08-19T09:00:13Z</time>
      </trkpt>
      <trkpt lat="45.77442" lon="6.40781">
        <ele>807</ele>
        <time>2010-08-19T09:00:21Z</time>
      </trkpt>
      <trkpt lat="45.77444" lon="6.40795">
        <ele>809.9</ele>
        <time>2010-08-19T09:00:28Z</time>
      </trkpt>
      <trkpt lat="45.77441" lon="6.40816">
        <ele>811.3</ele>
        <time>2010-08-19T09:00:37Z</time>
      </trkpt>
      <trkpt lat="45.77434" lon="6.40837">
        <ele>811.4</ele>
        <time>2010-08-19T09:00:45Z</time>
      </trkpt>
      <trkpt lat="45.77445" lon="6.40851">
        <ele>816.1</ele>
        <time>2010-08-19T09:00:53Z</time>
      </trkpt>
      <trkpt lat="45.7747" lon="6.40849">
        <ele>822.2</ele>
        <time>2010-08-19T09:01:07Z</time>
      </trkpt>
      <trkpt lat="45.77485" lon="6.40838">
        <ele>823.9</ele>
        <time>2010-08-19T09:01:15Z</time>
      </trkpt>
      <trkpt lat="45.77492" lon="6.4083">
        <ele>824.2</ele>
        <time>2010-08-19T09:01:19Z</time>
      </trkpt>
      <trkpt lat="45.77506" lon="6.40818">
        <ele>825.5</ele>
        <time>2010-08-19T09:01:27Z</time>
      </trkpt>
      <trkpt lat="45.77529" lon="6.40807">
        <ele>828.7</ele>
        <time>2010-08-19T09:01:40Z</time>
      </trkpt>
      <trkpt lat="45.77537" lon="6.40801">
        <ele>829.3</ele>
        <time>2010-08-19T09:01:44Z</time>
      </trkpt>
      <trkpt lat="45.77547" lon="6.40785">
        <ele>828.6</ele>
        <time>2010-08-19T09:01:50Z</time>
      </trkpt>
      <trkpt lat="45.77555" lon="6.40765">
        <ele>825</ele>
        <time>2010-08-19T09:01:57Z</time>
      </trkpt>
      <trkpt lat="45.77561" lon="6.40756">
        <ele>824.1</ele>
        <time>2010-08-19T09:02:01Z</time>
      </trkpt>
      <trkpt lat="45.77563" lon="6.40775">
        <ele>829.2</ele>
        <time>2010-08-19T09:02:16Z</time>
      </trkpt>
      <trkpt lat="45.77566" lon="6.40798">
        <ele>834.8</ele>
        <time>2010-08-19T09:02:26Z</time>
      </trkpt>
      <trkpt lat="45.77569" lon="6.40824">
        <ele>839</ele>
        <time>2010-08-19T09:02:37Z</time>
      </trkpt>
      <trkpt lat="45.77562" lon="6.40843">
        <ele>840.3</ele>
        <time>2010-08-19T09:02:44Z</time>
      </trkpt>
      <trkpt lat="45.77552" lon="6.4086">
        <ele>840.4</ele>
        <time>2010-08-19T09:02:51Z</time>
      </trkpt>
      <trkpt lat="45.77542" lon="6.40891">
        <ele>843.1</ele>
        <time>2010-08-19T09:03:02Z</time>
      </trkpt>
      <trkpt lat="45.77538" lon="6.40902">
        <ele>844</ele>
        <time>2010-08-19T09:03:06Z</time>
      </trkpt>
      <trkpt lat="45.77525" lon="6.4093">
        <ele>845.1</ele>
        <time>2010-08-19T09:03:17Z</time>
      </trkpt>
      <trkpt lat="45.7752" lon="6.4095">
        <ele>846.8</ele>
        <time>2010-08-19T09:03:23Z</time>
      </trkpt>
      <trkpt lat="45.77532" lon="6.40959">
        <ele>851.9</ele>
        <time>2010-08-19T09:03:32Z</time>
      </trkpt>
      <trkpt lat="45.77553" lon="6.40945">
        <ele>855.3</ele>
        <time>2010-08-19T09:03:48Z</time>
      </trkpt>
      <trkpt lat="45.77564" lon="6.40927">
        <ele>854.6</ele>
        <time>2010-08-19T09:03:57Z</time>
      </trkpt>
      <trkpt lat="45.77577" lon="6.40919">
        <ele>856.2</ele>
        <time>2010-08-19T09:04:05Z</time>
      </trkpt>
      <trkpt lat="45.77592" lon="6.40919">
        <ele>859.7</ele>
        <time>2010-08-19T09:04:13Z</time>
      </trkpt>
      <trkpt lat="45.77607" lon="6.40921">
        <ele>863.7</ele>
        <time>2010-08-19T09:04:21Z</time>
      </trkpt>
      <trkpt lat="45.77616" lon="6.40917">
        <ele>864.9</ele>
        <time>2010-08-19T09:04:25Z</time>
      </trkpt>
      <trkpt lat="45.77628" lon="6.40905">
        <ele>865.3</ele>
        <time>2010-08-19T09:04:32Z</time>
      </trkpt>
      <trkpt lat="45.77645" lon="6.40863">
        <ele>861</ele>
        <time>2010-08-19T09:04:48Z</time>
      </trkpt>
      <trkpt lat="45.7765" lon="6.40853">
        <ele>860.3</ele>
        <time>2010-08-19T09:04:52Z</time>
      </trkpt>
      <trkpt lat="45.77663" lon="6.40858">
        <ele>863.7</ele>
        <time>2010-08-19T09:05:00Z</time>
      </trkpt>
      <trkpt lat="45.77665" lon="6.40891">
        <ele>870.1</ele>
        <time>2010-08-19T09:05:12Z</time>
      </trkpt>
      <trkpt lat="45.77665" lon="6.40937">
        <ele>878.7</ele>
        <time>2010-08-19T09:05:28Z</time>
      </trkpt>
      <trkpt lat="45.77662" lon="6.40967">
        <ele>883.3</ele>
        <time>2010-08-19T09:05:37Z</time>
      </trkpt>
      <trkpt lat="45.77658" lon="6.40981">
        <ele>884.7</ele>
        <time>2010-08-19T09:05:42Z</time>
      </trkpt>
      <trkpt lat="45.77646" lon="6.41005">
        <ele>885.6</ele>
        <time>2010-08-19T09:05:51Z</time>
      </trkpt>
      <trkpt lat="45.77635" lon="6.41024">
        <ele>885.9</ele>
        <time>2010-08-19T09:06:00Z</time>
      </trkpt>
      <trkpt lat="45.77628" lon="6.41057">
        <ele>887.6</ele>
        <time>2010-08-19T09:06:13Z</time>
      </trkpt>
      <trkpt lat="45.77617" lon="6.41076">
        <ele>886.1</ele>
        <time>2010-08-19T09:06:21Z</time>
      </trkpt>
      <trkpt lat="45.7761" lon="6.41107">
        <ele>886.5</ele>
        <time>2010-08-19T09:06:31Z</time>
      </trkpt>
      <trkpt lat="45.77601" lon="6.41136">
        <ele>887.7</ele>
        <time>2010-08-19T09:06:41Z</time>
      </trkpt>
      <trkpt lat="45.77602" lon="6.41152">
        <ele>890.4</ele>
        <time>2010-08-19T09:06:46Z</time>
      </trkpt>
      <trkpt lat="45.7762" lon="6.41145">
        <ele>893.1</ele>
        <time>2010-08-19T09:06:57Z</time>
      </trkpt>
      <trkpt lat="45.7763" lon="6.41132">
        <ele>893.5</ele>
        <time>2010-08-19T09:07:03Z</time>
      </trkpt>
      <trkpt lat="45.77661" lon="6.41113">
        <ele>899.5</ele>
        <time>2010-08-19T09:07:18Z</time>
      </trkpt>
      <trkpt lat="45.77673" lon="6.41098">
        <ele>901.6</ele>
        <time>2010-08-19T09:07:25Z</time>
      </trkpt>
      <trkpt lat="45.77688" lon="6.41087">
        <ele>904.6</ele>
        <time>2010-08-19T09:07:34Z</time>
      </trkpt>
      <trkpt lat="45.77703" lon="6.41079">
        <ele>907.7</ele>
        <time>2010-08-19T09:07:42Z</time>
      </trkpt>
      <trkpt lat="45.77716" lon="6.41063">
        <ele>910.3</ele>
        <time>2010-08-19T09:07:49Z</time>
      </trkpt>
      <trkpt lat="45.77723" lon="6.41048">
        <ele>911.4</ele>
        <time>2010-08-19T09:07:54Z</time>
      </trkpt>
      <trkpt lat="45.77735" lon="6.41007">
        <ele>907.6</ele>
        <time>2010-08-19T09:08:07Z</time>
      </trkpt>
      <trkpt lat="45.77746" lon="6.41013">
        <ele>912.1</ele>
        <time>2010-08-19T09:08:17Z</time>
      </trkpt>
      <trkpt lat="45.77743" lon="6.41034">
        <ele>915.7</ele>
        <time>2010-08-19T09:08:25Z</time>
      </trkpt>
      <trkpt lat="45.77744" lon="6.41068">
        <ele>920.3</ele>
        <time>2010-08-19T09:08:38Z</time>
      </trkpt>
      <trkpt lat="45.77748" lon="6.41087">
        <ele>923.5</ele>
        <time>2010-08-19T09:08:44Z</time>
      </trkpt>
      <trkpt lat="45.77745" lon="6.41111">
        <ele>924.9</ele>
        <time>2010-08-19T09:08:53Z</time>
      </trkpt>
      <trkpt lat="45.77733" lon="6.41148">
        <ele>924.3</ele>
        <time>2010-08-19T09:09:06Z</time>
      </trkpt>
      <trkpt lat="45.77734" lon="6.4117">
        <ele>927.2</ele>
        <time>2010-08-19T09:09:12Z</time>
      </trkpt>
      <trkpt lat="45.77737" lon="6.41201">
        <ele>931.3</ele>
        <time>2010-08-19T09:09:21Z</time>
      </trkpt>
      <trkpt lat="45.77731" lon="6.41221">
        <ele>932.4</ele>
        <time>2010-08-19T09:09:27Z</time>
      </trkpt>
      <trkpt lat="45.77715" lon="6.41261">
        <ele>934.4</ele>
        <time>2010-08-19T09:09:41Z</time>
      </trkpt>
      <trkpt lat="45.77701" lon="6.41273">
        <ele>933.5</ele>
        <time>2010-08-19T09:09:49Z</time>
      </trkpt>
      <trkpt lat="45.7768" lon="6.41287">
        <ele>932.5</ele>
        <time>2010-08-19T09:10:01Z</time>
      </trkpt>
      <trkpt lat="45.7766" lon="6.41308">
        <ele>932.5</ele>
        <time>2010-08-19T09:10:13Z</time>
      </trkpt>
      <trkpt lat="45.77655" lon="6.41318">
        <ele>932.6</ele>
        <time>2010-08-19T09:10:17Z</time>
      </trkpt>
      <trkpt lat="45.77667" lon="6.41322">
        <ele>935.7</ele>
        <time>2010-08-19T09:10:27Z</time>
      </trkpt>
      <trkpt lat="45.77679" lon="6.4131">
        <ele>936.4</ele>
        <time>2010-08-19T09:10:35Z</time>
      </trkpt>
      <trkpt lat="45.77695" lon="6.41308">
        <ele>939.2</ele>
        <time>2010-08-19T09:10:43Z</time>
      </trkpt>
      <trkpt lat="45.77721" lon="6.41314">
        <ele>945.5</ele>
        <time>2010-08-19T09:10:55Z</time>
      </trkpt>
      <trkpt lat="45.77736" lon="6.41314">
        <ele>948.6</ele>
        <time>2010-08-19T09:11:02Z</time>
      </trkpt>
      <trkpt lat="45.7776" lon="6.4131">
        <ele>952.8</ele>
        <time>2010-08-19T09:11:11Z</time>
      </trkpt>
      <trkpt lat="45.77776" lon="6.41302">
        <ele>954.3</ele>
        <time>2010-08-19T09:11:17Z</time>
      </trkpt>
      <trkpt lat="45.77798" lon="6.41293">
        <ele>958.2</ele>
        <time>2010-08-19T09:11:27Z</time>
      </trkpt>
      <trkpt lat="45.77813" lon="6.41289">
        <ele>962.8</ele>
        <time>2010-08-19T09:11:34Z</time>
      </trkpt>
      <trkpt lat="45.77838" lon="6.41289">
        <ele>970.9</ele>
        <time>2010-08-19T09:11:46Z</time>
      </trkpt>
      <trkpt lat="45.77855" lon="6.41283">
        <ele>976.3</ele>
        <time>2010-08-19T09:11:54Z</time>
      </trkpt>
      <trkpt lat="45.77866" lon="6.41283">
        <ele>979.8</ele>
        <time>2010-08-19T09:12:13Z</time>
      </trkpt>
      <trkpt lat="45.77838" lon="6.41308">
        <ele>973.3</ele>
        <time>2010-08-19T09:12:29Z</time>
      </trkpt>
      <trkpt lat="45.77833" lon="6.41315">
        <ele>972.5</ele>
        <time>2010-08-19T09:12:33Z</time>
      </trkpt>
      <trkpt lat="45.77825" lon="6.41336">
        <ele>973</ele>
        <time>2010-08-19T09:12:41Z</time>
      </trkpt>
      <trkpt lat="45.77819" lon="6.41346">
        <ele>972.9</ele>
        <time>2010-08-19T09:12:45Z</time>
      </trkpt>
      <trkpt lat="45.77807" lon="6.4136">
        <ele>971.7</ele>
        <time>2010-08-19T09:12:52Z</time>
      </trkpt>
      <trkpt lat="45.77806" lon="6.41381">
        <ele>974.8</ele>
        <time>2010-08-19T09:13:00Z</time>
      </trkpt>
      <trkpt lat="45.77833" lon="6.41376">
        <ele>981</ele>
        <time>2010-08-19T09:13:12Z</time>
      </trkpt>
      <trkpt lat="45.77853" lon="6.41369">
        <ele>985.5</ele>
        <time>2010-08-19T09:13:21Z</time>
      </trkpt>
      <trkpt lat="45.77882" lon="6.41351">
        <ele>991.7</ele>
        <time>2010-08-19T09:13:35Z</time>
      </trkpt>
      <trkpt lat="45.77889" lon="6.41349">
        <ele>993.9</ele>
        <time>2010-08-19T09:13:38Z</time>
      </trkpt>
      <trkpt lat="45.77907" lon="6.41342">
        <ele>999.5</ele>
        <time>2010-08-19T09:14:34Z</time>
      </trkpt>
      <trkpt lat="45.77916" lon="6.41327">
        <ele>1002.2</ele>
        <time>2010-08-19T09:14:41Z</time>
      </trkpt>
      <trkpt lat="45.77923" lon="6.41306">
        <ele>1004.5</ele>
        <time>2010-08-19T09:14:49Z</time>
      </trkpt>
      <trkpt lat="45.77923" lon="6.41284">
        <ele>1004</ele>
        <time>2010-08-19T09:14:57Z</time>
      </trkpt>
      <trkpt lat="45.77914" lon="6.41253">
        <ele>999.6</ele>
        <time>2010-08-19T09:15:09Z</time>
      </trkpt>
      <trkpt lat="45.77907" lon="6.41222">
        <ele>996</ele>
        <time>2010-08-19T09:15:22Z</time>
      </trkpt>
      <trkpt lat="45.77906" lon="6.41199">
        <ele>993.5</ele>
        <time>2010-08-19T09:15:32Z</time>
      </trkpt>
      <trkpt lat="45.77914" lon="6.41189">
        <ele>994.4</ele>
        <time>2010-08-19T09:15:38Z</time>
      </trkpt>
      <trkpt lat="45.77947" lon="6.41158">
        <ele>997.9</ele>
        <time>2010-08-19T09:16:03Z</time>
      </trkpt>
      <trkpt lat="45.77969" lon="6.41146">
        <ele>1000</ele>
        <time>2010-08-19T09:16:18Z</time>
      </trkpt>
      <trkpt lat="45.77983" lon="6.41132">
        <ele>998.2</ele>
        <time>2010-08-19T09:16:28Z</time>
      </trkpt>
      <trkpt lat="45.77999" lon="6.41118">
        <ele>996</ele>
        <time>2010-08-19T09:16:39Z</time>
      </trkpt>
      <trkpt lat="45.77996" lon="6.41136">
        <ele>1001.8</ele>
        <time>2010-08-19T09:16:57Z</time>
      </trkpt>
      <trkpt lat="45.7798" lon="6.41163">
        <ele>1007.6</ele>
        <time>2010-08-19T09:17:12Z</time>
      </trkpt>
      <trkpt lat="45.77967" lon="6.4118">
        <ele>1009.9</ele>
        <time>2010-08-19T09:17:22Z</time>
      </trkpt>
      <trkpt lat="45.7798" lon="6.41187">
        <ele>1015.5</ele>
        <time>2010-08-19T09:17:37Z</time>
      </trkpt>
      <trkpt lat="45.78009" lon="6.41164">
        <ele>1014.5</ele>
        <time>2010-08-19T09:17:57Z</time>
      </trkpt>
      <trkpt lat="45.7804" lon="6.41145">
        <ele>1013.3</ele>
        <time>2010-08-19T09:18:17Z</time>
      </trkpt>
      <trkpt lat="45.78049" lon="6.41145">
        <ele>1015.4</ele>
        <time>2010-08-19T09:18:22Z</time>
      </trkpt>
      <trkpt lat="45.78079" lon="6.41163">
        <ele>1030.4</ele>
        <time>2010-08-19T09:18:46Z</time>
      </trkpt>
      <trkpt lat="45.78081" lon="6.41163">
        <ele>1031</ele>
        <time>2010-08-19T09:18:47Z</time>
      </trkpt>
      <trkpt lat="45.78103" lon="6.4115">
        <ele>1031.9</ele>
        <time>2010-08-19T09:19:20Z</time>
      </trkpt>
      <trkpt lat="45.78116" lon="6.41138">
        <ele>1031.4</ele>
        <time>2010-08-19T09:19:29Z</time>
      </trkpt>
      <trkpt lat="45.78124" lon="6.41142">
        <ele>1035.1</ele>
        <time>2010-08-19T09:19:36Z</time>
      </trkpt>
      <trkpt lat="45.78115" lon="6.41163">
        <ele>1039.3</ele>
        <time>2010-08-19T09:19:46Z</time>
      </trkpt>
      <trkpt lat="45.78112" lon="6.41175">
        <ele>1042.6</ele>
        <time>2010-08-19T09:19:52Z</time>
      </trkpt>
      <trkpt lat="45.78103" lon="6.41195">
        <ele>1047.3</ele>
        <time>2010-08-19T09:20:02Z</time>
      </trkpt>
      <trkpt lat="45.78095" lon="6.41199">
        <ele>1047</ele>
        <time>2010-08-19T09:20:06Z</time>
      </trkpt>
      <trkpt lat="45.78063" lon="6.41205">
        <ele>1043.5</ele>
        <time>2010-08-19T09:20:25Z</time>
      </trkpt>
      <trkpt lat="45.78054" lon="6.41209">
        <ele>1043.4</ele>
        <time>2010-08-19T09:20:30Z</time>
      </trkpt>
      <trkpt lat="45.78033" lon="6.41228">
        <ele>1041.6</ele>
        <time>2010-08-19T09:20:42Z</time>
      </trkpt>
      <trkpt lat="45.78022" lon="6.41244">
        <ele>1040.4</ele>
        <time>2010-08-19T09:20:50Z</time>
      </trkpt>
      <trkpt lat="45.7801" lon="6.41274">
        <ele>1039.8</ele>
        <time>2010-08-19T09:21:02Z</time>
      </trkpt>
      <trkpt lat="45.78016" lon="6.41289">
        <ele>1044.6</ele>
        <time>2010-08-19T09:21:13Z</time>
      </trkpt>
      <trkpt lat="45.78028" lon="6.41274">
        <ele>1047.3</ele>
        <time>2010-08-19T09:21:21Z</time>
      </trkpt>
      <trkpt lat="45.7805" lon="6.4127">
        <ele>1053.9</ele>
        <time>2010-08-19T09:21:32Z</time>
      </trkpt>
      <trkpt lat="45.78073" lon="6.41271">
        <ele>1058.7</ele>
        <time>2010-08-19T09:21:41Z</time>
      </trkpt>
      <trkpt lat="45.7809" lon="6.41264">
        <ele>1060.7</ele>
        <time>2010-08-19T09:21:49Z</time>
      </trkpt>
      <trkpt lat="45.78097" lon="6.41264">
        <ele>1062.2</ele>
        <time>2010-08-19T09:21:52Z</time>
      </trkpt>
      <trkpt lat="45.78119" lon="6.41271">
        <ele>1068.3</ele>
        <time>2010-08-19T09:22:01Z</time>
      </trkpt>
      <trkpt lat="45.78142" lon="6.41282">
        <ele>1073.6</ele>
        <time>2010-08-19T09:22:13Z</time>
      </trkpt>
      <trkpt lat="45.78166" lon="6.41285">
        <ele>1076.3</ele>
        <time>2010-08-19T09:22:26Z</time>
      </trkpt>
      <trkpt lat="45.78181" lon="6.4129">
        <ele>1078.4</ele>
        <time>2010-08-19T09:22:33Z</time>
      </trkpt>
      <trkpt lat="45.78198" lon="6.41289">
        <ele>1079.9</ele>
        <time>2010-08-19T09:22:41Z</time>
      </trkpt>
      <trkpt lat="45.78205" lon="6.41285">
        <ele>1080.1</ele>
        <time>2010-08-19T09:22:45Z</time>
      </trkpt>
      <trkpt lat="45.78226" lon="6.41268">
        <ele>1082.7</ele>
        <time>2010-08-19T09:22:58Z</time>
      </trkpt>
      <trkpt lat="45.78255" lon="6.4125">
        <ele>1086.9</ele>
        <time>2010-08-19T09:23:16Z</time>
      </trkpt>
      <trkpt lat="45.78271" lon="6.41224">
        <ele>1086.4</ele>
        <time>2010-08-19T09:23:32Z</time>
      </trkpt>
      <trkpt lat="45.78275" lon="6.41202">
        <ele>1084.5</ele>
        <time>2010-08-19T09:23:40Z</time>
      </trkpt>
      <trkpt lat="45.78287" lon="6.41194">
        <ele>1086.4</ele>
        <time>2010-08-19T09:23:52Z</time>
      </trkpt>
      <trkpt lat="45.78288" lon="6.41208">
        <ele>1087.3</ele>
        <time>2010-08-19T09:23:59Z</time>
      </trkpt>
      <trkpt lat="45.78295" lon="6.41228">
        <ele>1092.1</ele>
        <time>2010-08-19T09:24:12Z</time>
      </trkpt>
      <trkpt lat="45.7829" lon="6.41249">
        <ele>1093.9</ele>
        <time>2010-08-19T09:24:21Z</time>
      </trkpt>
      <trkpt lat="45.78275" lon="6.41276">
        <ele>1094.6</ele>
        <time>2010-08-19T09:24:32Z</time>
      </trkpt>
      <trkpt lat="45.7827" lon="6.41287">
        <ele>1095.2</ele>
        <time>2010-08-19T09:24:37Z</time>
      </trkpt>
      <trkpt lat="45.78265" lon="6.4131">
        <ele>1098.7</ele>
        <time>2010-08-19T09:24:48Z</time>
      </trkpt>
      <trkpt lat="45.78244" lon="6.41324">
        <ele>1097.4</ele>
        <time>2010-08-19T09:25:01Z</time>
      </trkpt>
      <trkpt lat="45.78223" lon="6.41341">
        <ele>1097.8</ele>
        <time>2010-08-19T09:25:11Z</time>
      </trkpt>
      <trkpt lat="45.782" lon="6.41346">
        <ele>1095.6</ele>
        <time>2010-08-19T09:25:19Z</time>
      </trkpt>
      <trkpt lat="45.78175" lon="6.41346">
        <ele>1092.2</ele>
        <time>2010-08-19T09:25:28Z</time>
      </trkpt>
      <trkpt lat="45.7816" lon="6.41354">
        <ele>1092.2</ele>
        <time>2010-08-19T09:25:34Z</time>
      </trkpt>
      <trkpt lat="45.7813" lon="6.41356">
        <ele>1088.5</ele>
        <time>2010-08-19T09:25:48Z</time>
      </trkpt>
      <trkpt lat="45.78111" lon="6.41374">
        <ele>1086.5</ele>
        <time>2010-08-19T09:26:00Z</time>
      </trkpt>
      <trkpt lat="45.78108" lon="6.41387">
        <ele>1087.2</ele>
        <time>2010-08-19T09:26:04Z</time>
      </trkpt>
      <trkpt lat="45.78108" lon="6.41415">
        <ele>1091.2</ele>
        <time>2010-08-19T09:26:13Z</time>
      </trkpt>
      <trkpt lat="45.78118" lon="6.41456">
        <ele>1102.5</ele>
        <time>2010-08-19T09:26:26Z</time>
      </trkpt>
      <trkpt lat="45.78119" lon="6.41478">
        <ele>1103.6</ele>
        <time>2010-08-19T09:26:31Z</time>
      </trkpt>
      <trkpt lat="45.78112" lon="6.41507">
        <ele>1099.6</ele>
        <time>2010-08-19T09:26:35Z</time>
      </trkpt>
      <trkpt lat="45.78101" lon="6.41529">
        <ele>1094.1</ele>
        <time>2010-08-19T09:26:38Z</time>
      </trkpt>
      <trkpt lat="45.78092" lon="6.41562">
        <ele>1092.9</ele>
        <time>2010-08-19T09:26:42Z</time>
      </trkpt>
      <trkpt lat="45.78084" lon="6.41588">
        <ele>1093.5</ele>
        <time>2010-08-19T09:26:45Z</time>
      </trkpt>
      <trkpt lat="45.78075" lon="6.41603">
        <ele>1092.4</ele>
        <time>2010-08-19T09:26:48Z</time>
      </trkpt>
      <trkpt lat="45.78059" lon="6.41625">
        <ele>1090.3</ele>
        <time>2010-08-19T09:26:55Z</time>
      </trkpt>
      <trkpt lat="45.78053" lon="6.41635">
        <ele>1089.4</ele>
        <time>2010-08-19T09:26:58Z</time>
      </trkpt>
      <trkpt lat="45.78052" lon="6.41658">
        <ele>1092</ele>
        <time>2010-08-19T09:27:05Z</time>
      </trkpt>
      <trkpt lat="45.78058" lon="6.4168">
        <ele>1097.2</ele>
        <time>2010-08-19T09:27:24Z</time>
      </trkpt>
      <trkpt lat="45.78072" lon="6.41705">
        <ele>1106.1</ele>
        <time>2010-08-19T09:27:34Z</time>
      </trkpt>
      <trkpt lat="45.78078" lon="6.41726">
        <ele>1109.7</ele>
        <time>2010-08-19T09:27:40Z</time>
      </trkpt>
      <trkpt lat="45.78085" lon="6.4176">
        <ele>1113.4</ele>
        <time>2010-08-19T09:27:51Z</time>
      </trkpt>
      <trkpt lat="45.78089" lon="6.41771">
        <ele>1115.5</ele>
        <time>2010-08-19T09:27:55Z</time>
      </trkpt>
      <trkpt lat="45.78103" lon="6.41797">
        <ele>1122.1</ele>
        <time>2010-08-19T09:28:05Z</time>
      </trkpt>
      <trkpt lat="45.78108" lon="6.4181">
        <ele>1123.9</ele>
        <time>2010-08-19T09:28:10Z</time>
      </trkpt>
      <trkpt lat="45.78117" lon="6.41838">
        <ele>1126</ele>
        <time>2010-08-19T09:28:20Z</time>
      </trkpt>
      <trkpt lat="45.78122" lon="6.41862">
        <ele>1126.8</ele>
        <time>2010-08-19T09:28:42Z</time>
      </trkpt>
      <trkpt lat="45.78131" lon="6.41884">
        <ele>1129.5</ele>
        <time>2010-08-19T09:32:26Z</time>
      </trkpt>
      <trkpt lat="45.78149" lon="6.41922">
        <ele>1133.6</ele>
        <time>2010-08-19T09:32:45Z</time>
      </trkpt>
      <trkpt lat="45.78155" lon="6.41946">
        <ele>1133</ele>
        <time>2010-08-19T09:32:53Z</time>
      </trkpt>
      <trkpt lat="45.78168" lon="6.41957">
        <ele>1136.8</ele>
        <time>2010-08-19T09:33:01Z</time>
      </trkpt>
      <trkpt lat="45.78171" lon="6.41946">
        <ele>1139.9</ele>
        <time>2010-08-19T09:33:06Z</time>
      </trkpt>
      <trkpt lat="45.78166" lon="6.41912">
        <ele>1143.2</ele>
        <time>2010-08-19T09:33:18Z</time>
      </trkpt>
      <trkpt lat="45.78161" lon="6.41889">
        <ele>1144.2</ele>
        <time>2010-08-19T09:33:27Z</time>
      </trkpt>
      <trkpt lat="45.78148" lon="6.41838">
        <ele>1142.2</ele>
        <time>2010-08-19T09:33:46Z</time>
      </trkpt>
      <trkpt lat="45.78149" lon="6.41813">
        <ele>1145.3</ele>
        <time>2010-08-19T09:33:56Z</time>
      </trkpt>
      <trkpt lat="45.78148" lon="6.41802">
        <ele>1145.6</ele>
        <time>2010-08-19T09:34:00Z</time>
      </trkpt>
      <trkpt lat="45.7815" lon="6.41778">
        <ele>1146.8</ele>
        <time>2010-08-19T09:34:08Z</time>
      </trkpt>
      <trkpt lat="45.78149" lon="6.41755">
        <ele>1145.1</ele>
        <time>2010-08-19T09:34:16Z</time>
      </trkpt>
      <trkpt lat="45.78155" lon="6.41763">
        <ele>1149.5</ele>
        <time>2010-08-19T09:34:26Z</time>
      </trkpt>
      <trkpt lat="45.78167" lon="6.41806">
        <ele>1155.8</ele>
        <time>2010-08-19T09:34:46Z</time>
      </trkpt>
      <trkpt lat="45.78168" lon="6.41818">
        <ele>1155.5</ele>
        <time>2010-08-19T09:34:50Z</time>
      </trkpt>
      <trkpt lat="45.78183" lon="6.41844">
        <ele>1161.3</ele>
        <time>2010-08-19T09:35:03Z</time>
      </trkpt>
      <trkpt lat="45.78187" lon="6.41854">
        <ele>1162.3</ele>
        <time>2010-08-19T09:35:07Z</time>
      </trkpt>
      <trkpt lat="45.78202" lon="6.41876">
        <ele>1168.5</ele>
        <time>2010-08-19T09:35:19Z</time>
      </trkpt>
      <trkpt lat="45.78215" lon="6.41895">
        <ele>1170</ele>
        <time>2010-08-19T09:35:35Z</time>
      </trkpt>
      <trkpt lat="45.78231" lon="6.41919">
        <ele>1171.2</ele>
        <time>2010-08-19T09:35:52Z</time>
      </trkpt>
      <trkpt lat="45.78243" lon="6.41934">
        <ele>1172.8</ele>
        <time>2010-08-19T09:36:00Z</time>
      </trkpt>
      <trkpt lat="45.78248" lon="6.41966">
        <ele>1168.3</ele>
        <time>2010-08-19T09:36:07Z</time>
      </trkpt>
      <trkpt lat="45.78256" lon="6.42005">
        <ele>1163.9</ele>
        <time>2010-08-19T09:36:16Z</time>
      </trkpt>
      <trkpt lat="45.78257" lon="6.42016">
        <ele>1162.5</ele>
        <time>2010-08-19T09:36:19Z</time>
      </trkpt>
      <trkpt lat="45.78267" lon="6.42059">
        <ele>1161.4</ele>
        <time>2010-08-19T09:36:33Z</time>
      </trkpt>
      <trkpt lat="45.78271" lon="6.42071">
        <ele>1163.4</ele>
        <time>2010-08-19T09:36:39Z</time>
      </trkpt>
      <trkpt lat="45.783" lon="6.42096">
        <ele>1176.1</ele>
        <time>2010-08-19T09:37:32Z</time>
      </trkpt>
      <trkpt lat="45.78306" lon="6.42107">
        <ele>1179.1</ele>
        <time>2010-08-19T09:37:46Z</time>
      </trkpt>
      <trkpt lat="45.78306" lon="6.4213">
        <ele>1179.6</ele>
        <time>2010-08-19T09:38:02Z</time>
      </trkpt>
      <trkpt lat="45.78299" lon="6.42153">
        <ele>1179.4</ele>
        <time>2010-08-19T09:38:24Z</time>
      </trkpt>
      <trkpt lat="45.78305" lon="6.42173">
        <ele>1183.5</ele>
        <time>2010-08-19T09:39:02Z</time>
      </trkpt>
      <trkpt lat="45.78318" lon="6.42215">
        <ele>1191.4</ele>
        <time>2010-08-19T09:39:42Z</time>
      </trkpt>
      <trkpt lat="45.78318" lon="6.42238">
        <ele>1191.6</ele>
        <time>2010-08-19T09:40:03Z</time>
      </trkpt>
      <trkpt lat="45.78322" lon="6.42269">
        <ele>1193.1</ele>
        <time>2010-08-19T09:40:23Z</time>
      </trkpt>
      <trkpt lat="45.78336" lon="6.42286">
        <ele>1197.2</ele>
        <time>2010-08-19T09:40:45Z</time>
      </trkpt>
      <trkpt lat="45.78344" lon="6.42307">
        <ele>1199</ele>
        <time>2010-08-19T09:40:56Z</time>
      </trkpt>
      <trkpt lat="45.78355" lon="6.42324">
        <ele>1202.1</ele>
        <time>2010-08-19T09:41:07Z</time>
      </trkpt>
      <trkpt lat="45.78365" lon="6.42344">
        <ele>1204.9</ele>
        <time>2010-08-19T09:41:20Z</time>
      </trkpt>
      <trkpt lat="45.78369" lon="6.42333">
        <ele>1206.6</ele>
        <time>2010-08-19T09:41:53Z</time>
      </trkpt>
      <trkpt lat="45.7837" lon="6.42298">
        <ele>1207.4</ele>
        <time>2010-08-19T09:42:09Z</time>
      </trkpt>
      <trkpt lat="45.78372" lon="6.42262">
        <ele>1208.3</ele>
        <time>2010-08-19T09:42:23Z</time>
      </trkpt>
      <trkpt lat="45.78375" lon="6.42253">
        <ele>1209.5</ele>
        <time>2010-08-19T09:42:27Z</time>
      </trkpt>
      <trkpt lat="45.78394" lon="6.42236">
        <ele>1216.7</ele>
        <time>2010-08-19T09:42:38Z</time>
      </trkpt>
      <trkpt lat="45.78402" lon="6.42215">
        <ele>1220.3</ele>
        <time>2010-08-19T09:42:47Z</time>
      </trkpt>
      <trkpt lat="45.78394" lon="6.42186">
        <ele>1217.1</ele>
        <time>2010-08-19T09:43:01Z</time>
      </trkpt>
      <trkpt lat="45.78386" lon="6.42162">
        <ele>1213.8</ele>
        <time>2010-08-19T09:43:11Z</time>
      </trkpt>
      <trkpt lat="45.78394" lon="6.42131">
        <ele>1216.9</ele>
        <time>2010-08-19T09:43:25Z</time>
      </trkpt>
      <trkpt lat="45.78407" lon="6.42103">
        <ele>1224.8</ele>
        <time>2010-08-19T09:43:41Z</time>
      </trkpt>
      <trkpt lat="45.78421" lon="6.42088">
        <ele>1232.1</ele>
        <time>2010-08-19T09:43:53Z</time>
      </trkpt>
      <trkpt lat="45.78421" lon="6.42113">
        <ele>1229.5</ele>
        <time>2010-08-19T09:44:14Z</time>
      </trkpt>
      <trkpt lat="45.78433" lon="6.42112">
        <ele>1234.7</ele>
        <time>2010-08-19T09:44:23Z</time>
      </trkpt>
      <trkpt lat="45.7844" lon="6.42092">
        <ele>1240.2</ele>
        <time>2010-08-19T09:44:33Z</time>
      </trkpt>
      <trkpt lat="45.78452" lon="6.42063">
        <ele>1248.7</ele>
        <time>2010-08-19T09:44:46Z</time>
      </trkpt>
      <trkpt lat="45.78454" lon="6.42042">
        <ele>1251.9</ele>
        <time>2010-08-19T09:44:54Z</time>
      </trkpt>
      <trkpt lat="45.78448" lon="6.41997">
        <ele>1249.8</ele>
        <time>2010-08-19T09:45:10Z</time>
      </trkpt>
      <trkpt lat="45.78442" lon="6.41955">
        <ele>1248.4</ele>
        <time>2010-08-19T09:45:23Z</time>
      </trkpt>
      <trkpt lat="45.78445" lon="6.41925">
        <ele>1250.3</ele>
        <time>2010-08-19T09:45:32Z</time>
      </trkpt>
      <trkpt lat="45.78452" lon="6.41902">
        <ele>1253.9</ele>
        <time>2010-08-19T09:45:40Z</time>
      </trkpt>
      <trkpt lat="45.78463" lon="6.41865">
        <ele>1257.3</ele>
        <time>2010-08-19T09:45:52Z</time>
      </trkpt>
      <trkpt lat="45.78465" lon="6.41856">
        <ele>1257</ele>
        <time>2010-08-19T09:45:55Z</time>
      </trkpt>
      <trkpt lat="45.78476" lon="6.41822">
        <ele>1256.9</ele>
        <time>2010-08-19T09:46:07Z</time>
      </trkpt>
      <trkpt lat="45.78475" lon="6.41787">
        <ele>1253.8</ele>
        <time>2010-08-19T09:46:18Z</time>
      </trkpt>
      <trkpt lat="45.7848" lon="6.41757">
        <ele>1253.2</ele>
        <time>2010-08-19T09:46:26Z</time>
      </trkpt>
      <trkpt lat="45.78488" lon="6.41726">
        <ele>1253.9</ele>
        <time>2010-08-19T09:46:35Z</time>
      </trkpt>
      <trkpt lat="45.78499" lon="6.41705">
        <ele>1255.9</ele>
        <time>2010-08-19T09:48:26Z</time>
      </trkpt>
      <trkpt lat="45.78514" lon="6.417">
        <ele>1259.6</ele>
        <time>2010-08-19T09:48:33Z</time>
      </trkpt>
      <trkpt lat="45.78526" lon="6.41689">
        <ele>1261.7</ele>
        <time>2010-08-19T09:48:39Z</time>
      </trkpt>
      <trkpt lat="45.78541" lon="6.4167">
        <ele>1263.3</ele>
        <time>2010-08-19T09:48:48Z</time>
      </trkpt>
      <trkpt lat="45.78564" lon="6.41637">
        <ele>1266.9</ele>
        <time>2010-08-19T09:49:01Z</time>
      </trkpt>
      <trkpt lat="45.7858" lon="6.41612">
        <ele>1271.4</ele>
        <time>2010-08-19T09:49:10Z</time>
      </trkpt>
      <trkpt lat="45.78602" lon="6.41578">
        <ele>1279</ele>
        <time>2010-08-19T09:49:23Z</time>
      </trkpt>
      <trkpt lat="45.78622" lon="6.41575">
        <ele>1286.7</ele>
        <time>2010-08-19T09:49:34Z</time>
      </trkpt>
      <trkpt lat="45.78623" lon="6.41596">
        <ele>1287.5</ele>
        <time>2010-08-19T09:49:40Z</time>
      </trkpt>
      <trkpt lat="45.78611" lon="6.4163">
        <ele>1283.8</ele>
        <time>2010-08-19T09:49:48Z</time>
      </trkpt>
      <trkpt lat="45.78607" lon="6.41663">
        <ele>1285.4</ele>
        <time>2010-08-19T09:49:54Z</time>
      </trkpt>
      <trkpt lat="45.78605" lon="6.41692">
        <ele>1287.3</ele>
        <time>2010-08-19T09:50:00Z</time>
      </trkpt>
      <trkpt lat="45.78607" lon="6.41705">
        <ele>1288.9</ele>
        <time>2010-08-19T09:50:03Z</time>
      </trkpt>
      <trkpt lat="45.78612" lon="6.41728">
        <ele>1291.3</ele>
        <time>2010-08-19T09:50:09Z</time>
      </trkpt>
      <trkpt lat="45.78622" lon="6.41756">
        <ele>1294.8</ele>
        <time>2010-08-19T09:50:18Z</time>
      </trkpt>
      <trkpt lat="45.78627" lon="6.41778">
        <ele>1296.4</ele>
        <time>2010-08-19T09:50:24Z</time>
      </trkpt>
      <trkpt lat="45.78631" lon="6.41803">
        <ele>1298.3</ele>
        <time>2010-08-19T09:50:31Z</time>
      </trkpt>
      <trkpt lat="45.78631" lon="6.41821">
        <ele>1299.8</ele>
        <time>2010-08-19T09:50:38Z</time>
      </trkpt>
      <trkpt lat="45.78628" lon="6.41862">
        <ele>1302</ele>
        <time>2010-08-19T09:50:48Z</time>
      </trkpt>
      <trkpt lat="45.78627" lon="6.41874">
        <ele>1302.4</ele>
        <time>2010-08-19T09:50:51Z</time>
      </trkpt>
      <trkpt lat="45.7862" lon="6.41904">
        <ele>1304.8</ele>
        <time>2010-08-19T09:51:00Z</time>
      </trkpt>
      <trkpt lat="45.78618" lon="6.41915">
        <ele>1306</ele>
        <time>2010-08-19T09:51:03Z</time>
      </trkpt>
      <trkpt lat="45.78611" lon="6.41946">
        <ele>1308.5</ele>
        <time>2010-08-19T09:51:12Z</time>
      </trkpt>
      <trkpt lat="45.78601" lon="6.41978">
        <ele>1308.5</ele>
        <time>2010-08-19T09:51:21Z</time>
      </trkpt>
      <trkpt lat="45.78598" lon="6.42001">
        <ele>1308.7</ele>
        <time>2010-08-19T09:51:27Z</time>
      </trkpt>
      <trkpt lat="45.78598" lon="6.42025">
        <ele>1309.9</ele>
        <time>2010-08-19T09:51:34Z</time>
      </trkpt>
      <trkpt lat="45.78597" lon="6.42044">
        <ele>1310.5</ele>
        <time>2010-08-19T09:51:39Z</time>
      </trkpt>
      <trkpt lat="45.78599" lon="6.42076">
        <ele>1310.8</ele>
        <time>2010-08-19T09:51:48Z</time>
      </trkpt>
      <trkpt lat="45.78605" lon="6.42107">
        <ele>1312.9</ele>
        <time>2010-08-19T09:51:57Z</time>
      </trkpt>
      <trkpt lat="45.78618" lon="6.42121">
        <ele>1318.1</ele>
        <time>2010-08-19T09:52:04Z</time>
      </trkpt>
      <trkpt lat="45.7862" lon="6.42102">
        <ele>1318.3</ele>
        <time>2010-08-19T09:52:17Z</time>
      </trkpt>
      <trkpt lat="45.7862" lon="6.42081">
        <ele>1317.7</ele>
        <time>2010-08-19T09:52:25Z</time>
      </trkpt>
      <trkpt lat="45.78641" lon="6.42066">
        <ele>1322.9</ele>
        <time>2010-08-19T09:52:34Z</time>
      </trkpt>
      <trkpt lat="45.78656" lon="6.4204">
        <ele>1325.4</ele>
        <time>2010-08-19T09:52:43Z</time>
      </trkpt>
      <trkpt lat="45.78668" lon="6.42023">
        <ele>1327.1</ele>
        <time>2010-08-19T09:52:54Z</time>
      </trkpt>
      <trkpt lat="45.78679" lon="6.42005">
        <ele>1328.7</ele>
        <time>2010-08-19T09:53:07Z</time>
      </trkpt>
      <trkpt lat="45.78688" lon="6.42002">
        <ele>1330.4</ele>
        <time>2010-08-19T09:53:14Z</time>
      </trkpt>
      <trkpt lat="45.78704" lon="6.42004">
        <ele>1334.2</ele>
        <time>2010-08-19T09:53:27Z</time>
      </trkpt>
      <trkpt lat="45.78728" lon="6.42005">
        <ele>1339.7</ele>
        <time>2010-08-19T09:53:49Z</time>
      </trkpt>
      <trkpt lat="45.78736" lon="6.42008">
        <ele>1341.7</ele>
        <time>2010-08-19T09:53:55Z</time>
      </trkpt>
      <trkpt lat="45.78749" lon="6.42024">
        <ele>1345.2</ele>
        <time>2010-08-19T09:54:07Z</time>
      </trkpt>
      <trkpt lat="45.78768" lon="6.42045">
        <ele>1350.4</ele>
        <time>2010-08-19T09:54:26Z</time>
      </trkpt>
      <trkpt lat="45.78781" lon="6.42061">
        <ele>1354.4</ele>
        <time>2010-08-19T09:54:42Z</time>
      </trkpt>
      <trkpt lat="45.7879" lon="6.42077">
        <ele>1357.5</ele>
        <time>2010-08-19T09:54:53Z</time>
      </trkpt>
      <trkpt lat="45.78789" lon="6.42101">
        <ele>1359.3</ele>
        <time>2010-08-19T09:55:04Z</time>
      </trkpt>
      <trkpt lat="45.78783" lon="6.42123">
        <ele>1360</ele>
        <time>2010-08-19T09:55:16Z</time>
      </trkpt>
      <trkpt lat="45.78776" lon="6.42143">
        <ele>1360.2</ele>
        <time>2010-08-19T09:55:25Z</time>
      </trkpt>
      <trkpt lat="45.7877" lon="6.42178">
        <ele>1361.3</ele>
        <time>2010-08-19T09:55:38Z</time>
      </trkpt>
      <trkpt lat="45.78762" lon="6.42222">
        <ele>1361.2</ele>
        <time>2010-08-19T09:55:52Z</time>
      </trkpt>
      <trkpt lat="45.78758" lon="6.42245">
        <ele>1360.3</ele>
        <time>2010-08-19T09:55:59Z</time>
      </trkpt>
      <trkpt lat="45.78755" lon="6.42285">
        <ele>1359.5</ele>
        <time>2010-08-19T09:56:08Z</time>
      </trkpt>
      <trkpt lat="45.78755" lon="6.42316">
        <ele>1357.6</ele>
        <time>2010-08-19T09:56:14Z</time>
      </trkpt>
      <trkpt lat="45.78761" lon="6.42347">
        <ele>1357</ele>
        <time>2010-08-19T09:56:20Z</time>
      </trkpt>
      <trkpt lat="45.78765" lon="6.42358">
        <ele>1358</ele>
        <time>2010-08-19T09:56:22Z</time>
      </trkpt>
      <trkpt lat="45.7878" lon="6.42368">
        <ele>1362.7</ele>
        <time>2010-08-19T09:56:26Z</time>
      </trkpt>
      <trkpt lat="45.78792" lon="6.42361">
        <ele>1367.6</ele>
        <time>2010-08-19T09:56:30Z</time>
      </trkpt>
      <trkpt lat="45.78799" lon="6.42343">
        <ele>1370.5</ele>
        <time>2010-08-19T09:56:36Z</time>
      </trkpt>
      <trkpt lat="45.78798" lon="6.42312">
        <ele>1370.9</ele>
        <time>2010-08-19T09:56:45Z</time>
      </trkpt>
      <trkpt lat="45.78799" lon="6.42296">
        <ele>1371.5</ele>
        <time>2010-08-19T09:56:49Z</time>
      </trkpt>
      <trkpt lat="45.78809" lon="6.42257">
        <ele>1372.8</ele>
        <time>2010-08-19T09:57:00Z</time>
      </trkpt>
      <trkpt lat="45.78813" lon="6.42248">
        <ele>1373.3</ele>
        <time>2010-08-19T09:57:03Z</time>
      </trkpt>
      <trkpt lat="45.7883" lon="6.42221">
        <ele>1374.4</ele>
        <time>2010-08-19T09:57:12Z</time>
      </trkpt>
      <trkpt lat="45.78848" lon="6.42199">
        <ele>1375</ele>
        <time>2010-08-19T09:57:21Z</time>
      </trkpt>
      <trkpt lat="45.78862" lon="6.42172">
        <ele>1374.4</ele>
        <time>2010-08-19T09:57:30Z</time>
      </trkpt>
      <trkpt lat="45.78877" lon="6.42145">
        <ele>1374.3</ele>
        <time>2010-08-19T09:57:39Z</time>
      </trkpt>
      <trkpt lat="45.78883" lon="6.42136">
        <ele>1376</ele>
        <time>2010-08-19T09:57:42Z</time>
      </trkpt>
      <trkpt lat="45.78904" lon="6.42112">
        <ele>1384.3</ele>
        <time>2010-08-19T09:57:52Z</time>
      </trkpt>
      <trkpt lat="45.78916" lon="6.42105">
        <ele>1389</ele>
        <time>2010-08-19T09:57:57Z</time>
      </trkpt>
      <trkpt lat="45.78928" lon="6.42118">
        <ele>1393.8</ele>
        <time>2010-08-19T09:58:04Z</time>
      </trkpt>
      <trkpt lat="45.78924" lon="6.42139">
        <ele>1392.4</ele>
        <time>2010-08-19T09:58:11Z</time>
      </trkpt>
      <trkpt lat="45.78909" lon="6.42166">
        <ele>1387.6</ele>
        <time>2010-08-19T09:58:20Z</time>
      </trkpt>
      <trkpt lat="45.78899" lon="6.42208">
        <ele>1386.3</ele>
        <time>2010-08-19T09:58:32Z</time>
      </trkpt>
      <trkpt lat="45.78893" lon="6.42239">
        <ele>1387.8</ele>
        <time>2010-08-19T09:58:41Z</time>
      </trkpt>
      <trkpt lat="45.78884" lon="6.42279">
        <ele>1390.2</ele>
        <time>2010-08-19T09:58:53Z</time>
      </trkpt>
      <trkpt lat="45.78876" lon="6.42311">
        <ele>1392.1</ele>
        <time>2010-08-19T09:59:05Z</time>
      </trkpt>
      <trkpt lat="45.78878" lon="6.42345">
        <ele>1395.7</ele>
        <time>2010-08-19T09:59:21Z</time>
      </trkpt>
      <trkpt lat="45.78884" lon="6.42366">
        <ele>1398.7</ele>
        <time>2010-08-19T09:59:27Z</time>
      </trkpt>
      <trkpt lat="45.78894" lon="6.42399">
        <ele>1401</ele>
        <time>2010-08-19T09:59:35Z</time>
      </trkpt>
      <trkpt lat="45.78901" lon="6.42418">
        <ele>1402.3</ele>
        <time>2010-08-19T09:59:40Z</time>
      </trkpt>
      <trkpt lat="45.7892" lon="6.42415">
        <ele>1406.4</ele>
        <time>2010-08-19T09:59:49Z</time>
      </trkpt>
      <trkpt lat="45.78924" lon="6.4239">
        <ele>1407</ele>
        <time>2010-08-19T09:59:57Z</time>
      </trkpt>
      <trkpt lat="45.78925" lon="6.4235">
        <ele>1405</ele>
        <time>2010-08-19T10:00:08Z</time>
      </trkpt>
      <trkpt lat="45.78931" lon="6.42329">
        <ele>1404.5</ele>
        <time>2010-08-19T10:00:14Z</time>
      </trkpt>
      <trkpt lat="45.78943" lon="6.42317">
        <ele>1405.9</ele>
        <time>2010-08-19T10:00:20Z</time>
      </trkpt>
      <trkpt lat="45.78955" lon="6.42333">
        <ele>1409.3</ele>
        <time>2010-08-19T10:00:28Z</time>
      </trkpt>
      <trkpt lat="45.78956" lon="6.42346">
        <ele>1410.4</ele>
        <time>2010-08-19T10:00:32Z</time>
      </trkpt>
      <trkpt lat="45.78956" lon="6.42368">
        <ele>1412.1</ele>
        <time>2010-08-19T10:00:39Z</time>
      </trkpt>
      <trkpt lat="45.78963" lon="6.42409">
        <ele>1415.8</ele>
        <time>2010-08-19T10:00:52Z</time>
      </trkpt>
      <trkpt lat="45.7898" lon="6.4241">
        <ele>1420.2</ele>
        <time>2010-08-19T10:01:01Z</time>
      </trkpt>
      <trkpt lat="45.78988" lon="6.42377">
        <ele>1421.3</ele>
        <time>2010-08-19T10:01:12Z</time>
      </trkpt>
      <trkpt lat="45.78997" lon="6.4235">
        <ele>1422.9</ele>
        <time>2010-08-19T10:01:21Z</time>
      </trkpt>
      <trkpt lat="45.79012" lon="6.42315">
        <ele>1426.6</ele>
        <time>2010-08-19T10:01:33Z</time>
      </trkpt>
      <trkpt lat="45.79024" lon="6.42304">
        <ele>1430.5</ele>
        <time>2010-08-19T10:01:39Z</time>
      </trkpt>
      <trkpt lat="45.79036" lon="6.42309">
        <ele>1434.9</ele>
        <time>2010-08-19T10:01:45Z</time>
      </trkpt>
      <trkpt lat="45.79042" lon="6.42331">
        <ele>1436.8</ele>
        <time>2010-08-19T10:01:53Z</time>
      </trkpt>
      <trkpt lat="45.79043" lon="6.42356">
        <ele>1436.6</ele>
        <time>2010-08-19T10:02:01Z</time>
      </trkpt>
      <trkpt lat="45.79048" lon="6.42391">
        <ele>1438</ele>
        <time>2010-08-19T10:02:12Z</time>
      </trkpt>
      <trkpt lat="45.79054" lon="6.42414">
        <ele>1439.4</ele>
        <time>2010-08-19T10:02:20Z</time>
      </trkpt>
      <trkpt lat="45.7906" lon="6.42436">
        <ele>1440.5</ele>
        <time>2010-08-19T10:02:28Z</time>
      </trkpt>
      <trkpt lat="45.79063" lon="6.42447">
        <ele>1441.3</ele>
        <time>2010-08-19T10:02:32Z</time>
      </trkpt>
      <trkpt lat="45.79068" lon="6.42471">
        <ele>1442.9</ele>
        <time>2010-08-19T10:02:40Z</time>
      </trkpt>
      <trkpt lat="45.79072" lon="6.42482">
        <ele>1444.4</ele>
        <time>2010-08-19T10:02:44Z</time>
      </trkpt>
      <trkpt lat="45.79078" lon="6.42516">
        <ele>1447.3</ele>
        <time>2010-08-19T10:02:56Z</time>
      </trkpt>
      <trkpt lat="45.79089" lon="6.42549">
        <ele>1449.8</ele>
        <time>2010-08-19T10:03:08Z</time>
      </trkpt>
      <trkpt lat="45.79104" lon="6.42575">
        <ele>1452</ele>
        <time>2010-08-19T10:03:21Z</time>
      </trkpt>
      <trkpt lat="45.79122" lon="6.42597">
        <ele>1455.8</ele>
        <time>2010-08-19T10:03:33Z</time>
      </trkpt>
      <trkpt lat="45.79144" lon="6.42618">
        <ele>1460.4</ele>
        <time>2010-08-19T10:04:14Z</time>
      </trkpt>
      <trkpt lat="45.79158" lon="6.42631">
        <ele>1462.6</ele>
        <time>2010-08-19T10:08:20Z</time>
      </trkpt>
      <trkpt lat="45.7917" lon="6.42644">
        <ele>1463.8</ele>
        <time>2010-08-19T10:08:29Z</time>
      </trkpt>
      <trkpt lat="45.79181" lon="6.42637">
        <ele>1466.4</ele>
        <time>2010-08-19T10:08:38Z</time>
      </trkpt>
      <trkpt lat="45.79183" lon="6.42625">
        <ele>1467.4</ele>
        <time>2010-08-19T10:08:42Z</time>
      </trkpt>
      <trkpt lat="45.7918" lon="6.42589">
        <ele>1468.8</ele>
        <time>2010-08-19T10:08:54Z</time>
      </trkpt>
      <trkpt lat="45.79181" lon="6.42578">
        <ele>1469.7</ele>
        <time>2010-08-19T10:08:58Z</time>
      </trkpt>
      <trkpt lat="45.79179" lon="6.42554">
        <ele>1470.4</ele>
        <time>2010-08-19T10:09:06Z</time>
      </trkpt>
      <trkpt lat="45.79181" lon="6.42531">
        <ele>1472.8</ele>
        <time>2010-08-19T10:09:14Z</time>
      </trkpt>
      <trkpt lat="45.7918" lon="6.42505">
        <ele>1475.3</ele>
        <time>2010-08-19T10:09:23Z</time>
      </trkpt>
      <trkpt lat="45.7918" lon="6.42462">
        <ele>1479.5</ele>
        <time>2010-08-19T10:09:38Z</time>
      </trkpt>
      <trkpt lat="45.79192" lon="6.42446">
        <ele>1485.1</ele>
        <time>2010-08-19T10:09:48Z</time>
      </trkpt>
      <trkpt lat="45.79205" lon="6.42457">
        <ele>1489.8</ele>
        <time>2010-08-19T10:09:56Z</time>
      </trkpt>
      <trkpt lat="45.79216" lon="6.42472">
        <ele>1490.8</ele>
        <time>2010-08-19T10:10:04Z</time>
      </trkpt>
      <trkpt lat="45.79232" lon="6.42498">
        <ele>1491.1</ele>
        <time>2010-08-19T10:10:14Z</time>
      </trkpt>
      <trkpt lat="45.79251" lon="6.42524">
        <ele>1492.7</ele>
        <time>2010-08-19T10:10:26Z</time>
      </trkpt>
      <trkpt lat="45.79261" lon="6.4254">
        <ele>1493.5</ele>
        <time>2010-08-19T10:10:33Z</time>
      </trkpt>
      <trkpt lat="45.79272" lon="6.42555">
        <ele>1494.8</ele>
        <time>2010-08-19T10:10:40Z</time>
      </trkpt>
      <trkpt lat="45.79296" lon="6.42585">
        <ele>1497.8</ele>
        <time>2010-08-19T10:10:54Z</time>
      </trkpt>
      <trkpt lat="45.79303" lon="6.42592">
        <ele>1498.5</ele>
        <time>2010-08-19T10:10:58Z</time>
      </trkpt>
      <trkpt lat="45.79317" lon="6.42615">
        <ele>1499</ele>
        <time>2010-08-19T10:11:07Z</time>
      </trkpt>
      <trkpt lat="45.79335" lon="6.42638">
        <ele>1500.8</ele>
        <time>2010-08-19T10:11:18Z</time>
      </trkpt>
      <trkpt lat="45.79353" lon="6.42649">
        <ele>1504</ele>
        <time>2010-08-19T10:11:27Z</time>
      </trkpt>
      <trkpt lat="45.79365" lon="6.42661">
        <ele>1506.2</ele>
        <time>2010-08-19T10:11:34Z</time>
      </trkpt>
      <trkpt lat="45.79375" lon="6.42676">
        <ele>1507.8</ele>
        <time>2010-08-19T10:11:40Z</time>
      </trkpt>
      <trkpt lat="45.79383" lon="6.42696">
        <ele>1508.7</ele>
        <time>2010-08-19T10:11:46Z</time>
      </trkpt>
      <trkpt lat="45.79385" lon="6.42719">
        <ele>1509</ele>
        <time>2010-08-19T10:11:52Z</time>
      </trkpt>
      <trkpt lat="45.79384" lon="6.42731">
        <ele>1508.9</ele>
        <time>2010-08-19T10:11:55Z</time>
      </trkpt>
      <trkpt lat="45.79376" lon="6.42772">
        <ele>1507.9</ele>
        <time>2010-08-19T10:12:05Z</time>
      </trkpt>
      <trkpt lat="45.79367" lon="6.42805">
        <ele>1508</ele>
        <time>2010-08-19T10:12:13Z</time>
      </trkpt>
      <trkpt lat="45.79361" lon="6.4283">
        <ele>1509.2</ele>
        <time>2010-08-19T10:12:19Z</time>
      </trkpt>
      <trkpt lat="45.79354" lon="6.42869">
        <ele>1511.4</ele>
        <time>2010-08-19T10:12:28Z</time>
      </trkpt>
      <trkpt lat="45.79349" lon="6.42903">
        <ele>1512.8</ele>
        <time>2010-08-19T10:12:36Z</time>
      </trkpt>
      <trkpt lat="45.79346" lon="6.42921">
        <ele>1513.4</ele>
        <time>2010-08-19T10:12:40Z</time>
      </trkpt>
      <trkpt lat="45.79346" lon="6.42939">
        <ele>1514.5</ele>
        <time>2010-08-19T10:12:44Z</time>
      </trkpt>
      <trkpt lat="45.79352" lon="6.42971">
        <ele>1516.6</ele>
        <time>2010-08-19T10:12:52Z</time>
      </trkpt>
      <trkpt lat="45.79363" lon="6.43002">
        <ele>1518.6</ele>
        <time>2010-08-19T10:13:01Z</time>
      </trkpt>
      <trkpt lat="45.79382" lon="6.43041">
        <ele>1522.5</ele>
        <time>2010-08-19T10:13:13Z</time>
      </trkpt>
      <trkpt lat="45.79391" lon="6.4306">
        <ele>1523.9</ele>
        <time>2010-08-19T10:13:19Z</time>
      </trkpt>
      <trkpt lat="45.79413" lon="6.43091">
        <ele>1527.6</ele>
        <time>2010-08-19T10:13:31Z</time>
      </trkpt>
      <trkpt lat="45.79427" lon="6.43097">
        <ele>1530.5</ele>
        <time>2010-08-19T10:13:37Z</time>
      </trkpt>
      <trkpt lat="45.7943" lon="6.43085">
        <ele>1531.7</ele>
        <time>2010-08-19T10:13:41Z</time>
      </trkpt>
      <trkpt lat="45.79425" lon="6.43052">
        <ele>1532</ele>
        <time>2010-08-19T10:13:50Z</time>
      </trkpt>
      <trkpt lat="45.79424" lon="6.43028">
        <ele>1532.4</ele>
        <time>2010-08-19T10:13:56Z</time>
      </trkpt>
      <trkpt lat="45.79434" lon="6.43017">
        <ele>1534.9</ele>
        <time>2010-08-19T10:14:02Z</time>
      </trkpt>
      <trkpt lat="45.7945" lon="6.4304">
        <ele>1538.1</ele>
        <time>2010-08-19T10:14:11Z</time>
      </trkpt>
      <trkpt lat="45.79469" lon="6.43071">
        <ele>1540.7</ele>
        <time>2010-08-19T10:14:23Z</time>
      </trkpt>
      <trkpt lat="45.79488" lon="6.43095">
        <ele>1543.2</ele>
        <time>2010-08-19T10:14:33Z</time>
      </trkpt>
      <trkpt lat="45.79498" lon="6.43107">
        <ele>1544.7</ele>
        <time>2010-08-19T10:14:38Z</time>
      </trkpt>
      <trkpt lat="45.7951" lon="6.43124">
        <ele>1546</ele>
        <time>2010-08-19T10:14:44Z</time>
      </trkpt>
      <trkpt lat="45.79525" lon="6.4315">
        <ele>1547.5</ele>
        <time>2010-08-19T10:14:53Z</time>
      </trkpt>
      <trkpt lat="45.79534" lon="6.43169">
        <ele>1548.5</ele>
        <time>2010-08-19T10:14:59Z</time>
      </trkpt>
      <trkpt lat="45.7954" lon="6.43201">
        <ele>1547.9</ele>
        <time>2010-08-19T10:15:08Z</time>
      </trkpt>
      <trkpt lat="45.79544" lon="6.43222">
        <ele>1548.4</ele>
        <time>2010-08-19T10:15:15Z</time>
      </trkpt>
      <trkpt lat="45.79561" lon="6.43245">
        <ele>1552.3</ele>
        <time>2010-08-19T10:15:25Z</time>
      </trkpt>
      <trkpt lat="45.79575" lon="6.43255">
        <ele>1556</ele>
        <time>2010-08-19T10:15:32Z</time>
      </trkpt>
      <trkpt lat="45.79599" lon="6.43254">
        <ele>1562.8</ele>
        <time>2010-08-19T10:15:45Z</time>
      </trkpt>
      <trkpt lat="45.79624" lon="6.43257">
        <ele>1569.7</ele>
        <time>2010-08-19T10:16:02Z</time>
      </trkpt>
      <trkpt lat="45.79638" lon="6.43269">
        <ele>1571.7</ele>
        <time>2010-08-19T10:16:15Z</time>
      </trkpt>
      <trkpt lat="45.79649" lon="6.43284">
        <ele>1573</ele>
        <time>2010-08-19T10:16:26Z</time>
      </trkpt>
      <trkpt lat="45.79659" lon="6.43306">
        <ele>1574.3</ele>
        <time>2010-08-19T10:16:40Z</time>
      </trkpt>
      <trkpt lat="45.79671" lon="6.43318">
        <ele>1575.8</ele>
        <time>2010-08-19T10:16:50Z</time>
      </trkpt>
      <trkpt lat="45.79685" lon="6.43345">
        <ele>1577.5</ele>
        <time>2010-08-19T10:17:06Z</time>
      </trkpt>
      <trkpt lat="45.79689" lon="6.43376">
        <ele>1578.2</ele>
        <time>2010-08-19T10:17:13Z</time>
      </trkpt>
      <trkpt lat="45.79687" lon="6.43421">
        <ele>1579.9</ele>
        <time>2010-08-19T10:17:25Z</time>
      </trkpt>
      <trkpt lat="45.79686" lon="6.43434">
        <ele>1580.4</ele>
        <time>2010-08-19T10:17:29Z</time>
      </trkpt>
      <trkpt lat="45.79686" lon="6.43475">
        <ele>1581.5</ele>
        <time>2010-08-19T10:17:41Z</time>
      </trkpt>
      <trkpt lat="45.79686" lon="6.43478">
        <ele>1581.5</ele>
        <time>2010-08-19T10:17:42Z</time>
      </trkpt>
      <trkpt lat="45.79683" lon="6.43522">
        <ele>1581.6</ele>
        <time>2010-08-19T10:17:56Z</time>
      </trkpt>
      <trkpt lat="45.79679" lon="6.43533">
        <ele>1581.6</ele>
        <time>2010-08-19T10:18:00Z</time>
      </trkpt>
      <trkpt lat="45.79658" lon="6.43544">
        <ele>1581.3</ele>
        <time>2010-08-19T10:18:09Z</time>
      </trkpt>
      <trkpt lat="45.79652" lon="6.43548">
        <ele>1581.1</ele>
        <time>2010-08-19T10:18:11Z</time>
      </trkpt>
      <trkpt lat="45.79632" lon="6.43571">
        <ele>1580.8</ele>
        <time>2010-08-19T10:18:17Z</time>
      </trkpt>
      <trkpt lat="45.79613" lon="6.43585">
        <ele>1577.5</ele>
        <time>2010-08-19T10:18:21Z</time>
      </trkpt>
      <trkpt lat="45.79603" lon="6.43595">
        <ele>1574.9</ele>
        <time>2010-08-19T10:18:23Z</time>
      </trkpt>
      <trkpt lat="45.79596" lon="6.4361">
        <ele>1573.1</ele>
        <time>2010-08-19T10:18:25Z</time>
      </trkpt>
      <trkpt lat="45.79594" lon="6.43629">
        <ele>1572.5</ele>
        <time>2010-08-19T10:18:27Z</time>
      </trkpt>
      <trkpt lat="45.79598" lon="6.4366">
        <ele>1572.2</ele>
        <time>2010-08-19T10:18:30Z</time>
      </trkpt>
      <trkpt lat="45.796" lon="6.43672">
        <ele>1572.2</ele>
        <time>2010-08-19T10:18:31Z</time>
      </trkpt>
      <trkpt lat="45.79613" lon="6.43719">
        <ele>1572</ele>
        <time>2010-08-19T10:18:35Z</time>
      </trkpt>
      <trkpt lat="45.79617" lon="6.43742">
        <ele>1571</ele>
        <time>2010-08-19T10:18:37Z</time>
      </trkpt>
      <trkpt lat="45.79614" lon="6.43763">
        <ele>1568.9</ele>
        <time>2010-08-19T10:18:39Z</time>
      </trkpt>
      <trkpt lat="45.79603" lon="6.43776">
        <ele>1566.6</ele>
        <time>2010-08-19T10:18:41Z</time>
      </trkpt>
      <trkpt lat="45.79588" lon="6.43778">
        <ele>1564.7</ele>
        <time>2010-08-19T10:18:43Z</time>
      </trkpt>
      <trkpt lat="45.79572" lon="6.43773">
        <ele>1563</ele>
        <time>2010-08-19T10:18:45Z</time>
      </trkpt>
      <trkpt lat="45.79547" lon="6.43765">
        <ele>1560</ele>
        <time>2010-08-19T10:18:48Z</time>
      </trkpt>
      <trkpt lat="45.79519" lon="6.43753">
        <ele>1551.1</ele>
        <time>2010-08-19T10:18:51Z</time>
      </trkpt>
      <trkpt lat="45.79504" lon="6.43746">
        <ele>1545.4</ele>
        <time>2010-08-19T10:18:53Z</time>
      </trkpt>
      <trkpt lat="45.79492" lon="6.43747">
        <ele>1540.9</ele>
        <time>2010-08-19T10:18:55Z</time>
      </trkpt>
      <trkpt lat="45.79489" lon="6.43769">
        <ele>1540</ele>
        <time>2010-08-19T10:18:58Z</time>
      </trkpt>
      <trkpt lat="45.79501" lon="6.43806">
        <ele>1544.3</ele>
        <time>2010-08-19T10:19:02Z</time>
      </trkpt>
      <trkpt lat="45.79515" lon="6.43836">
        <ele>1548.8</ele>
        <time>2010-08-19T10:19:05Z</time>
      </trkpt>
      <trkpt lat="45.79529" lon="6.43856">
        <ele>1552.6</ele>
        <time>2010-08-19T10:19:07Z</time>
      </trkpt>
      <trkpt lat="45.79542" lon="6.43871">
        <ele>1556.2</ele>
        <time>2010-08-19T10:19:09Z</time>
      </trkpt>
      <trkpt lat="45.79549" lon="6.43891">
        <ele>1554.9</ele>
        <time>2010-08-19T10:19:11Z</time>
      </trkpt>
      <trkpt lat="45.79548" lon="6.43902">
        <ele>1554</ele>
        <time>2010-08-19T10:19:12Z</time>
      </trkpt>
      <trkpt lat="45.79542" lon="6.43924">
        <ele>1552.5</ele>
        <time>2010-08-19T10:19:14Z</time>
      </trkpt>
      <trkpt lat="45.79529" lon="6.43952">
        <ele>1548.5</ele>
        <time>2010-08-19T10:19:17Z</time>
      </trkpt>
      <trkpt lat="45.79512" lon="6.4397">
        <ele>1547</ele>
        <time>2010-08-19T10:19:20Z</time>
      </trkpt>
      <trkpt lat="45.795" lon="6.43975">
        <ele>1546.1</ele>
        <time>2010-08-19T10:19:22Z</time>
      </trkpt>
      <trkpt lat="45.79486" lon="6.43976">
        <ele>1544.8</ele>
        <time>2010-08-19T10:19:24Z</time>
      </trkpt>
      <trkpt lat="45.7946" lon="6.4397">
        <ele>1540.6</ele>
        <time>2010-08-19T10:19:28Z</time>
      </trkpt>
      <trkpt lat="45.79439" lon="6.43967">
        <ele>1537.6</ele>
        <time>2010-08-19T10:19:31Z</time>
      </trkpt>
      <trkpt lat="45.79416" lon="6.43968">
        <ele>1535.4</ele>
        <time>2010-08-19T10:19:34Z</time>
      </trkpt>
      <trkpt lat="45.79391" lon="6.43979">
        <ele>1535.8</ele>
        <time>2010-08-19T10:19:37Z</time>
      </trkpt>
      <trkpt lat="45.79382" lon="6.43981">
        <ele>1535.4</ele>
        <time>2010-08-19T10:19:38Z</time>
      </trkpt>
      <trkpt lat="45.79354" lon="6.43978">
        <ele>1529.8</ele>
        <time>2010-08-19T10:19:41Z</time>
      </trkpt>
      <trkpt lat="45.79345" lon="6.43979">
        <ele>1528.4</ele>
        <time>2010-08-19T10:19:42Z</time>
      </trkpt>
      <trkpt lat="45.79315" lon="6.43987">
        <ele>1524.8</ele>
        <time>2010-08-19T10:19:45Z</time>
      </trkpt>
      <trkpt lat="45.79289" lon="6.44001">
        <ele>1524.2</ele>
        <time>2010-08-19T10:19:48Z</time>
      </trkpt>
      <trkpt lat="45.79271" lon="6.44007">
        <ele>1524.9</ele>
        <time>2010-08-19T10:19:50Z</time>
      </trkpt>
      <trkpt lat="45.79251" lon="6.44007">
        <ele>1524.1</ele>
        <time>2010-08-19T10:19:52Z</time>
      </trkpt>
      <trkpt lat="45.79209" lon="6.44006">
        <ele>1521.7</ele>
        <time>2010-08-19T10:19:56Z</time>
      </trkpt>
      <trkpt lat="45.79199" lon="6.44006">
        <ele>1521.6</ele>
        <time>2010-08-19T10:19:57Z</time>
      </trkpt>
      <trkpt lat="45.79166" lon="6.44018">
        <ele>1523</ele>
        <time>2010-08-19T10:20:01Z</time>
      </trkpt>
      <trkpt lat="45.79133" lon="6.44026">
        <ele>1522.7</ele>
        <time>2010-08-19T10:20:05Z</time>
      </trkpt>
      <trkpt lat="45.79105" lon="6.44026">
        <ele>1516.9</ele>
        <time>2010-08-19T10:20:10Z</time>
      </trkpt>
      <trkpt lat="45.7909" lon="6.44038">
        <ele>1512.8</ele>
        <time>2010-08-19T10:20:30Z</time>
      </trkpt>
      <trkpt lat="45.79089" lon="6.44056">
        <ele>1513.2</ele>
        <time>2010-08-19T10:20:52Z</time>
      </trkpt>
      <trkpt lat="45.79112" lon="6.44067">
        <ele>1522.5</ele>
        <time>2010-08-19T10:21:19Z</time>
      </trkpt>
      <trkpt lat="45.79105" lon="6.44084">
        <ele>1521.2</ele>
        <time>2010-08-19T10:21:49Z</time>
      </trkpt>
      <trkpt lat="45.79097" lon="6.4409">
        <ele>1518.1</ele>
        <time>2010-08-19T10:22:01Z</time>
      </trkpt>
      <trkpt lat="45.79088" lon="6.44109">
        <ele>1515.3</ele>
        <time>2010-08-19T10:22:19Z</time>
      </trkpt>
      <trkpt lat="45.79096" lon="6.44117">
        <ele>1519.3</ele>
        <time>2010-08-19T10:22:34Z</time>
      </trkpt>
      <trkpt lat="45.79112" lon="6.44123">
        <ele>1528.1</ele>
        <time>2010-08-19T10:22:53Z</time>
      </trkpt>
      <trkpt lat="45.79121" lon="6.44125">
        <ele>1533</ele>
        <time>2010-08-19T10:23:05Z</time>
      </trkpt>
      <trkpt lat="45.79109" lon="6.44142">
        <ele>1528.7</ele>
        <time>2010-08-19T10:23:23Z</time>
      </trkpt>
      <trkpt lat="45.79105" lon="6.44153">
        <ele>1527.8</ele>
        <time>2010-08-19T10:23:31Z</time>
      </trkpt>
      <trkpt lat="45.79101" lon="6.44188">
        <ele>1529.9</ele>
        <time>2010-08-19T10:23:57Z</time>
      </trkpt>
      <trkpt lat="45.7911" lon="6.44188">
        <ele>1535</ele>
        <time>2010-08-19T10:24:16Z</time>
      </trkpt>
      <trkpt lat="45.79127" lon="6.44183">
        <ele>1543.3</ele>
        <time>2010-08-19T10:24:45Z</time>
      </trkpt>
      <trkpt lat="45.79131" lon="6.44207">
        <ele>1548.4</ele>
        <time>2010-08-19T10:25:26Z</time>
      </trkpt>
      <trkpt lat="45.79141" lon="6.44213">
        <ele>1554.4</ele>
        <time>2010-08-19T10:25:52Z</time>
      </trkpt>
      <trkpt lat="45.7915" lon="6.44227">
        <ele>1561.7</ele>
        <time>2010-08-19T10:26:42Z</time>
      </trkpt>
      <trkpt lat="45.79146" lon="6.44252">
        <ele>1565.7</ele>
        <time>2010-08-19T10:27:18Z</time>
      </trkpt>
      <trkpt lat="45.79154" lon="6.44258">
        <ele>1571.4</ele>
        <time>2010-08-19T10:27:41Z</time>
      </trkpt>
      <trkpt lat="45.79148" lon="6.44295">
        <ele>1577.3</ele>
        <time>2010-08-19T10:28:16Z</time>
      </trkpt>
      <trkpt lat="45.79146" lon="6.44307">
        <ele>1579.5</ele>
        <time>2010-08-19T10:28:27Z</time>
      </trkpt>
      <trkpt lat="45.79145" lon="6.44331">
        <ele>1586.6</ele>
        <time>2010-08-19T10:28:50Z</time>
      </trkpt>
      <trkpt lat="45.79136" lon="6.44366">
        <ele>1592.6</ele>
        <time>2010-08-19T10:29:23Z</time>
      </trkpt>
      <trkpt lat="45.79131" lon="6.44389">
        <ele>1596.4</ele>
        <time>2010-08-19T10:29:46Z</time>
      </trkpt>
      <trkpt lat="45.79156" lon="6.44382">
        <ele>1607.6</ele>
        <time>2010-08-19T10:30:29Z</time>
      </trkpt>
      <trkpt lat="45.79168" lon="6.44391">
        <ele>1615.2</ele>
        <time>2010-08-19T10:30:55Z</time>
      </trkpt>
      <trkpt lat="45.79178" lon="6.44415">
        <ele>1623.3</ele>
        <time>2010-08-19T10:31:50Z</time>
      </trkpt>
      <trkpt lat="45.79195" lon="6.4441">
        <ele>1630.3</ele>
        <time>2010-08-19T10:32:04Z</time>
      </trkpt>
      <trkpt lat="45.79196" lon="6.44424">
        <ele>1631.9</ele>
        <time>2010-08-19T10:32:21Z</time>
      </trkpt>
      <trkpt lat="45.79206" lon="6.4444">
        <ele>1637.1</ele>
        <time>2010-08-19T10:32:34Z</time>
      </trkpt>
      <trkpt lat="45.79221" lon="6.44441">
        <ele>1643.9</ele>
        <time>2010-08-19T10:33:03Z</time>
      </trkpt>
      <trkpt lat="45.79232" lon="6.44421">
        <ele>1647.4</ele>
        <time>2010-08-19T10:33:24Z</time>
      </trkpt>
      <trkpt lat="45.79246" lon="6.44414">
        <ele>1653.4</ele>
        <time>2010-08-19T10:33:42Z</time>
      </trkpt>
      <trkpt lat="45.79256" lon="6.44394">
        <ele>1656.2</ele>
        <time>2010-08-19T10:34:14Z</time>
      </trkpt>
      <trkpt lat="45.79261" lon="6.44383">
        <ele>1657.3</ele>
        <time>2010-08-19T10:34:31Z</time>
      </trkpt>
      <trkpt lat="45.79281" lon="6.4436">
        <ele>1660.1</ele>
        <time>2010-08-19T10:35:11Z</time>
      </trkpt>
      <trkpt lat="45.79286" lon="6.44369">
        <ele>1665.3</ele>
        <time>2010-08-19T10:35:33Z</time>
      </trkpt>
      <trkpt lat="45.79293" lon="6.44391">
        <ele>1671.9</ele>
        <time>2010-08-19T10:35:48Z</time>
      </trkpt>
      <trkpt lat="45.79298" lon="6.444">
        <ele>1674.5</ele>
        <time>2010-08-19T10:35:55Z</time>
      </trkpt>
      <trkpt lat="45.79312" lon="6.44414">
        <ele>1680.6</ele>
        <time>2010-08-19T10:36:10Z</time>
      </trkpt>
      <trkpt lat="45.7932" lon="6.44419">
        <ele>1683.9</ele>
        <time>2010-08-19T10:36:18Z</time>
      </trkpt>
      <trkpt lat="45.79344" lon="6.44436">
        <ele>1693.7</ele>
        <time>2010-08-19T10:37:03Z</time>
      </trkpt>
      <trkpt lat="45.79361" lon="6.44441">
        <ele>1700.1</ele>
        <time>2010-08-19T10:37:48Z</time>
      </trkpt>
      <trkpt lat="45.79377" lon="6.44435">
        <ele>1704.6</ele>
        <time>2010-08-19T10:38:06Z</time>
      </trkpt>
      <trkpt lat="45.79401" lon="6.44434">
        <ele>1707.1</ele>
        <time>2010-08-19T10:38:31Z</time>
      </trkpt>
      <trkpt lat="45.79403" lon="6.44422">
        <ele>1705.5</ele>
        <time>2010-08-19T10:39:03Z</time>
      </trkpt>
      <trkpt lat="45.79386" lon="6.44381">
        <ele>1699.2</ele>
        <time>2010-08-19T10:39:29Z</time>
      </trkpt>
      <trkpt lat="45.79395" lon="6.4438">
        <ele>1699.3</ele>
        <time>2010-08-19T10:39:50Z</time>
      </trkpt>
      <trkpt lat="45.79412" lon="6.44387">
        <ele>1701.2</ele>
        <time>2010-08-19T10:40:22Z</time>
      </trkpt>
      <trkpt lat="45.79404" lon="6.44381">
        <ele>1699.8</ele>
        <time>2010-08-19T10:47:38Z</time>
      </trkpt>
      <trkpt lat="45.79419" lon="6.44397">
        <ele>1703.1</ele>
        <time>2010-08-19T10:52:27Z</time>
      </trkpt>
      <trkpt lat="45.79411" lon="6.44385">
        <ele>1700.8</ele>
        <time>2010-08-19T10:54:17Z</time>
      </trkpt>
      <trkpt lat="45.79375" lon="6.44367">
        <ele>1694.5</ele>
        <time>2010-08-19T10:54:41Z</time>
      </trkpt>
      <trkpt lat="45.79361" lon="6.44389">
        <ele>1694.7</ele>
        <time>2010-08-19T10:54:53Z</time>
      </trkpt>
      <trkpt lat="45.79357" lon="6.44401">
        <ele>1694.8</ele>
        <time>2010-08-19T10:54:57Z</time>
      </trkpt>
      <trkpt lat="45.79341" lon="6.44392">
        <ele>1688.3</ele>
        <time>2010-08-19T10:55:05Z</time>
      </trkpt>
      <trkpt lat="45.79325" lon="6.44389">
        <ele>1682.6</ele>
        <time>2010-08-19T10:55:14Z</time>
      </trkpt>
      <trkpt lat="45.79314" lon="6.44394">
        <ele>1679.5</ele>
        <time>2010-08-19T10:55:20Z</time>
      </trkpt>
      <trkpt lat="45.79293" lon="6.44387">
        <ele>1671.7</ele>
        <time>2010-08-19T10:55:33Z</time>
      </trkpt>
      <trkpt lat="45.79289" lon="6.44359">
        <ele>1663.2</ele>
        <time>2010-08-19T10:55:40Z</time>
      </trkpt>
      <trkpt lat="45.7928" lon="6.44359">
        <ele>1659.6</ele>
        <time>2010-08-19T10:55:46Z</time>
      </trkpt>
      <trkpt lat="45.79266" lon="6.44373">
        <ele>1658.3</ele>
        <time>2010-08-19T10:55:53Z</time>
      </trkpt>
      <trkpt lat="45.79256" lon="6.4439">
        <ele>1656</ele>
        <time>2010-08-19T10:55:58Z</time>
      </trkpt>
      <trkpt lat="45.79248" lon="6.44408">
        <ele>1653.7</ele>
        <time>2010-08-19T10:56:04Z</time>
      </trkpt>
      <trkpt lat="45.79227" lon="6.44431">
        <ele>1645.8</ele>
        <time>2010-08-19T10:56:14Z</time>
      </trkpt>
      <trkpt lat="45.79217" lon="6.44439">
        <ele>1641.6</ele>
        <time>2010-08-19T10:56:21Z</time>
      </trkpt>
      <trkpt lat="45.79204" lon="6.44428">
        <ele>1635.4</ele>
        <time>2010-08-19T10:56:25Z</time>
      </trkpt>
      <trkpt lat="45.79195" lon="6.44408">
        <ele>1630.1</ele>
        <time>2010-08-19T10:56:37Z</time>
      </trkpt>
      <trkpt lat="45.79181" lon="6.44415">
        <ele>1624.6</ele>
        <time>2010-08-19T10:56:41Z</time>
      </trkpt>
      <trkpt lat="45.79176" lon="6.44394">
        <ele>1619.4</ele>
        <time>2010-08-19T10:56:54Z</time>
      </trkpt>
      <trkpt lat="45.79165" lon="6.44384">
        <ele>1612.7</ele>
        <time>2010-08-19T10:57:03Z</time>
      </trkpt>
      <trkpt lat="45.79152" lon="6.44389">
        <ele>1606.9</ele>
        <time>2010-08-19T10:57:09Z</time>
      </trkpt>
      <trkpt lat="45.79136" lon="6.44399">
        <ele>1601.5</ele>
        <time>2010-08-19T10:57:16Z</time>
      </trkpt>
      <trkpt lat="45.7914" lon="6.44366">
        <ele>1595.3</ele>
        <time>2010-08-19T10:57:36Z</time>
      </trkpt>
      <trkpt lat="45.79148" lon="6.44346">
        <ele>1593.4</ele>
        <time>2010-08-19T10:57:42Z</time>
      </trkpt>
      <trkpt lat="45.79149" lon="6.44334">
        <ele>1589.7</ele>
        <time>2010-08-19T10:57:45Z</time>
      </trkpt>
      <trkpt lat="45.79157" lon="6.44294">
        <ele>1582.7</ele>
        <time>2010-08-19T10:57:56Z</time>
      </trkpt>
      <trkpt lat="45.7916" lon="6.44273">
        <ele>1579.2</ele>
        <time>2010-08-19T10:58:03Z</time>
      </trkpt>
      <trkpt lat="45.79154" lon="6.44265">
        <ele>1573.2</ele>
        <time>2010-08-19T10:58:24Z</time>
      </trkpt>
      <trkpt lat="45.7916" lon="6.44243">
        <ele>1570.8</ele>
        <time>2010-08-19T10:58:33Z</time>
      </trkpt>
      <trkpt lat="45.79159" lon="6.4422">
        <ele>1564.3</ele>
        <time>2010-08-19T10:59:03Z</time>
      </trkpt>
      <trkpt lat="45.7915" lon="6.44217">
        <ele>1559.6</ele>
        <time>2010-08-19T10:59:09Z</time>
      </trkpt>
      <trkpt lat="45.79136" lon="6.44212">
        <ele>1551.9</ele>
        <time>2010-08-19T10:59:23Z</time>
      </trkpt>
      <trkpt lat="45.79138" lon="6.44191">
        <ele>1549</ele>
        <time>2010-08-19T10:59:30Z</time>
      </trkpt>
      <trkpt lat="45.79116" lon="6.44192">
        <ele>1538.5</ele>
        <time>2010-08-19T10:59:44Z</time>
      </trkpt>
      <trkpt lat="45.79102" lon="6.4419">
        <ele>1530.4</ele>
        <time>2010-08-19T10:59:55Z</time>
      </trkpt>
      <trkpt lat="45.79102" lon="6.4417">
        <ele>1528.3</ele>
        <time>2010-08-19T10:59:59Z</time>
      </trkpt>
      <trkpt lat="45.79111" lon="6.4414">
        <ele>1529.5</ele>
        <time>2010-08-19T11:00:05Z</time>
      </trkpt>
      <trkpt lat="45.79111" lon="6.44126">
        <ele>1528</ele>
        <time>2010-08-19T11:00:13Z</time>
      </trkpt>
      <trkpt lat="45.79091" lon="6.44117">
        <ele>1517</ele>
        <time>2010-08-19T11:00:19Z</time>
      </trkpt>
      <trkpt lat="45.79089" lon="6.44099">
        <ele>1515.3</ele>
        <time>2010-08-19T11:00:27Z</time>
      </trkpt>
      <trkpt lat="45.791" lon="6.44088">
        <ele>1519.4</ele>
        <time>2010-08-19T11:00:31Z</time>
      </trkpt>
      <trkpt lat="45.79113" lon="6.4407">
        <ele>1523.1</ele>
        <time>2010-08-19T11:00:41Z</time>
      </trkpt>
      <trkpt lat="45.79097" lon="6.4406">
        <ele>1516.2</ele>
        <time>2010-08-19T11:00:48Z</time>
      </trkpt>
      <trkpt lat="45.7909" lon="6.44043">
        <ele>1512.6</ele>
        <time>2010-08-19T11:00:54Z</time>
      </trkpt>
      <trkpt lat="45.79094" lon="6.44019">
        <ele>1514</ele>
        <time>2010-08-19T11:01:51Z</time>
      </trkpt>
      <trkpt lat="45.79086" lon="6.44002">
        <ele>1512.7</ele>
        <time>2010-08-19T11:01:59Z</time>
      </trkpt>
      <trkpt lat="45.79074" lon="6.43986">
        <ele>1511.8</ele>
        <time>2010-08-19T11:02:03Z</time>
      </trkpt>
      <trkpt lat="45.79057" lon="6.43967">
        <ele>1512.8</ele>
        <time>2010-08-19T11:02:07Z</time>
      </trkpt>
      <trkpt lat="45.79047" lon="6.43958">
        <ele>1514</ele>
        <time>2010-08-19T11:02:09Z</time>
      </trkpt>
      <trkpt lat="45.79031" lon="6.43948">
        <ele>1515</ele>
        <time>2010-08-19T11:02:12Z</time>
      </trkpt>
      <trkpt lat="45.79017" lon="6.43939">
        <ele>1516.7</ele>
        <time>2010-08-19T11:02:15Z</time>
      </trkpt>
      <trkpt lat="45.79" lon="6.43922">
        <ele>1520.2</ele>
        <time>2010-08-19T11:02:20Z</time>
      </trkpt>
      <trkpt lat="45.78983" lon="6.43891">
        <ele>1527</ele>
        <time>2010-08-19T11:02:28Z</time>
      </trkpt>
      <trkpt lat="45.78979" lon="6.43867">
        <ele>1528.8</ele>
        <time>2010-08-19T11:02:43Z</time>
      </trkpt>
      <trkpt lat="45.78984" lon="6.43855">
        <ele>1525.3</ele>
        <time>2010-08-19T11:02:54Z</time>
      </trkpt>
      <trkpt lat="45.78976" lon="6.43827">
        <ele>1522.2</ele>
        <time>2010-08-19T11:03:03Z</time>
      </trkpt>
      <trkpt lat="45.78962" lon="6.43812">
        <ele>1523.3</ele>
        <time>2010-08-19T11:03:12Z</time>
      </trkpt>
      <trkpt lat="45.78956" lon="6.43791">
        <ele>1521.5</ele>
        <time>2010-08-19T11:03:27Z</time>
      </trkpt>
      <trkpt lat="45.78952" lon="6.4378">
        <ele>1520.3</ele>
        <time>2010-08-19T11:03:31Z</time>
      </trkpt>
      <trkpt lat="45.78932" lon="6.43747">
        <ele>1517.8</ele>
        <time>2010-08-19T11:03:44Z</time>
      </trkpt>
      <trkpt lat="45.78917" lon="6.43735">
        <ele>1518.7</ele>
        <time>2010-08-19T11:03:57Z</time>
      </trkpt>
      <trkpt lat="45.78892" lon="6.43737">
        <ele>1526.3</ele>
        <time>2010-08-19T11:04:25Z</time>
      </trkpt>
      <trkpt lat="45.78884" lon="6.43741">
        <ele>1529.7</ele>
        <time>2010-08-19T11:04:45Z</time>
      </trkpt>
      <trkpt lat="45.78858" lon="6.43744">
        <ele>1535.5</ele>
        <time>2010-08-19T11:05:22Z</time>
      </trkpt>
      <trkpt lat="45.78831" lon="6.43742">
        <ele>1538.7</ele>
        <time>2010-08-19T11:06:12Z</time>
      </trkpt>
      <trkpt lat="45.78808" lon="6.43752">
        <ele>1543.8</ele>
        <time>2010-08-19T11:06:38Z</time>
      </trkpt>
      <trkpt lat="45.78801" lon="6.43759">
        <ele>1545.8</ele>
        <time>2010-08-19T11:06:46Z</time>
      </trkpt>
      <trkpt lat="45.7879" lon="6.43776">
        <ele>1549.5</ele>
        <time>2010-08-19T11:07:01Z</time>
      </trkpt>
      <trkpt lat="45.78782" lon="6.43782">
        <ele>1550.1</ele>
        <time>2010-08-19T11:07:16Z</time>
      </trkpt>
      <trkpt lat="45.78767" lon="6.43781">
        <ele>1549.6</ele>
        <time>2010-08-19T11:07:31Z</time>
      </trkpt>
      <trkpt lat="45.78758" lon="6.43776">
        <ele>1548.8</ele>
        <time>2010-08-19T11:07:41Z</time>
      </trkpt>
      <trkpt lat="45.78743" lon="6.43779">
        <ele>1548.8</ele>
        <time>2010-08-19T11:07:55Z</time>
      </trkpt>
      <trkpt lat="45.7872" lon="6.43767">
        <ele>1547.1</ele>
        <time>2010-08-19T11:08:18Z</time>
      </trkpt>
      <trkpt lat="45.78708" lon="6.43752">
        <ele>1545.4</ele>
        <time>2010-08-19T11:08:41Z</time>
      </trkpt>
      <trkpt lat="45.78704" lon="6.4374">
        <ele>1542.9</ele>
        <time>2010-08-19T11:08:51Z</time>
      </trkpt>
      <trkpt lat="45.78695" lon="6.43721">
        <ele>1537.5</ele>
        <time>2010-08-19T11:09:03Z</time>
      </trkpt>
      <trkpt lat="45.7868" lon="6.43684">
        <ele>1530.6</ele>
        <time>2010-08-19T11:09:17Z</time>
      </trkpt>
      <trkpt lat="45.78662" lon="6.43662">
        <ele>1524</ele>
        <time>2010-08-19T11:09:28Z</time>
      </trkpt>
      <trkpt lat="45.78662" lon="6.43638">
        <ele>1525.1</ele>
        <time>2010-08-19T11:09:39Z</time>
      </trkpt>
      <trkpt lat="45.78669" lon="6.43615">
        <ele>1527.5</ele>
        <time>2010-08-19T11:09:55Z</time>
      </trkpt>
      <trkpt lat="45.78659" lon="6.43601">
        <ele>1524.9</ele>
        <time>2010-08-19T11:10:12Z</time>
      </trkpt>
      <trkpt lat="45.78645" lon="6.43592">
        <ele>1523</ele>
        <time>2010-08-19T11:10:44Z</time>
      </trkpt>
      <trkpt lat="45.7864" lon="6.43574">
        <ele>1524.3</ele>
        <time>2010-08-19T11:10:48Z</time>
      </trkpt>
      <trkpt lat="45.78636" lon="6.43551">
        <ele>1527.5</ele>
        <time>2010-08-19T11:10:56Z</time>
      </trkpt>
      <trkpt lat="45.78615" lon="6.43523">
        <ele>1524.1</ele>
        <time>2010-08-19T11:11:08Z</time>
      </trkpt>
      <trkpt lat="45.78598" lon="6.43503">
        <ele>1518.1</ele>
        <time>2010-08-19T11:11:15Z</time>
      </trkpt>
      <trkpt lat="45.78573" lon="6.43479">
        <ele>1513.3</ele>
        <time>2010-08-19T11:11:30Z</time>
      </trkpt>
      <trkpt lat="45.78559" lon="6.43462">
        <ele>1512.5</ele>
        <time>2010-08-19T11:14:53Z</time>
      </trkpt>
      <trkpt lat="45.78541" lon="6.4344">
        <ele>1506.4</ele>
        <time>2010-08-19T11:15:05Z</time>
      </trkpt>
      <trkpt lat="45.78526" lon="6.43446">
        <ele>1503.1</ele>
        <time>2010-08-19T11:15:25Z</time>
      </trkpt>
      <trkpt lat="45.7851" lon="6.43438">
        <ele>1496.4</ele>
        <time>2010-08-19T11:15:33Z</time>
      </trkpt>
      <trkpt lat="45.7851" lon="6.43415">
        <ele>1492.1</ele>
        <time>2010-08-19T11:15:42Z</time>
      </trkpt>
      <trkpt lat="45.78504" lon="6.43412">
        <ele>1490</ele>
        <time>2010-08-19T11:16:24Z</time>
      </trkpt>
      <trkpt lat="45.78482" lon="6.43417">
        <ele>1485.6</ele>
        <time>2010-08-19T11:16:34Z</time>
      </trkpt>
      <trkpt lat="45.78468" lon="6.43406">
        <ele>1481.8</ele>
        <time>2010-08-19T11:16:43Z</time>
      </trkpt>
      <trkpt lat="45.78466" lon="6.43394">
        <ele>1480.8</ele>
        <time>2010-08-19T11:16:48Z</time>
      </trkpt>
      <trkpt lat="45.78452" lon="6.43373">
        <ele>1477</ele>
        <time>2010-08-19T11:16:57Z</time>
      </trkpt>
      <trkpt lat="45.78439" lon="6.43361">
        <ele>1470.2</ele>
        <time>2010-08-19T11:17:04Z</time>
      </trkpt>
      <trkpt lat="45.7843" lon="6.43361">
        <ele>1468.9</ele>
        <time>2010-08-19T11:17:11Z</time>
      </trkpt>
      <trkpt lat="45.78415" lon="6.43355">
        <ele>1464.6</ele>
        <time>2010-08-19T11:17:21Z</time>
      </trkpt>
      <trkpt lat="45.78391" lon="6.43347">
        <ele>1459.5</ele>
        <time>2010-08-19T11:17:44Z</time>
      </trkpt>
      <trkpt lat="45.78383" lon="6.43349">
        <ele>1458.7</ele>
        <time>2010-08-19T11:17:50Z</time>
      </trkpt>
      <trkpt lat="45.7836" lon="6.43358">
        <ele>1454.5</ele>
        <time>2010-08-19T11:18:03Z</time>
      </trkpt>
      <trkpt lat="45.78354" lon="6.43349">
        <ele>1451.8</ele>
        <time>2010-08-19T11:18:09Z</time>
      </trkpt>
      <trkpt lat="45.78346" lon="6.43335">
        <ele>1448.4</ele>
        <time>2010-08-19T11:18:17Z</time>
      </trkpt>
      <trkpt lat="45.7833" lon="6.43324">
        <ele>1444.1</ele>
        <time>2010-08-19T11:18:53Z</time>
      </trkpt>
      <trkpt lat="45.78311" lon="6.43317">
        <ele>1440.1</ele>
        <time>2010-08-19T11:19:10Z</time>
      </trkpt>
      <trkpt lat="45.78299" lon="6.43303">
        <ele>1438.5</ele>
        <time>2010-08-19T11:19:24Z</time>
      </trkpt>
      <trkpt lat="45.78291" lon="6.43289">
        <ele>1436.8</ele>
        <time>2010-08-19T11:19:28Z</time>
      </trkpt>
      <trkpt lat="45.78276" lon="6.43271">
        <ele>1427.1</ele>
        <time>2010-08-19T11:19:34Z</time>
      </trkpt>
      <trkpt lat="45.78269" lon="6.43266">
        <ele>1424.2</ele>
        <time>2010-08-19T11:19:36Z</time>
      </trkpt>
      <trkpt lat="45.78242" lon="6.43264">
        <ele>1419.2</ele>
        <time>2010-08-19T11:19:44Z</time>
      </trkpt>
      <trkpt lat="45.78234" lon="6.43265">
        <ele>1418.3</ele>
        <time>2010-08-19T11:19:46Z</time>
      </trkpt>
      <trkpt lat="45.78212" lon="6.43264">
        <ele>1414.6</ele>
        <time>2010-08-19T11:19:51Z</time>
      </trkpt>
      <trkpt lat="45.78203" lon="6.43266">
        <ele>1414.5</ele>
        <time>2010-08-19T11:19:53Z</time>
      </trkpt>
      <trkpt lat="45.78174" lon="6.4327">
        <ele>1416.4</ele>
        <time>2010-08-19T11:20:00Z</time>
      </trkpt>
      <trkpt lat="45.78166" lon="6.4327">
        <ele>1416.7</ele>
        <time>2010-08-19T11:20:02Z</time>
      </trkpt>
      <trkpt lat="45.78153" lon="6.43281">
        <ele>1420.8</ele>
        <time>2010-08-19T11:20:07Z</time>
      </trkpt>
      <trkpt lat="45.78138" lon="6.4327">
        <ele>1417.2</ele>
        <time>2010-08-19T11:20:34Z</time>
      </trkpt>
      <trkpt lat="45.78121" lon="6.4326">
        <ele>1414.1</ele>
        <time>2010-08-19T11:21:00Z</time>
      </trkpt>
      <trkpt lat="45.78105" lon="6.43258">
        <ele>1413.7</ele>
        <time>2010-08-19T11:21:38Z</time>
      </trkpt>
      <trkpt lat="45.7808" lon="6.4326">
        <ele>1416.3</ele>
        <time>2010-08-19T11:23:25Z</time>
      </trkpt>
      <trkpt lat="45.78073" lon="6.43266">
        <ele>1419.6</ele>
        <time>2010-08-19T11:23:37Z</time>
      </trkpt>
      <trkpt lat="45.7805" lon="6.43282">
        <ele>1431.4</ele>
        <time>2010-08-19T11:24:13Z</time>
      </trkpt>
      <trkpt lat="45.78019" lon="6.433">
        <ele>1432.6</ele>
        <time>2010-08-19T11:24:56Z</time>
      </trkpt>
      <trkpt lat="45.78004" lon="6.43312">
        <ele>1432.3</ele>
        <time>2010-08-19T11:25:18Z</time>
      </trkpt>
      <trkpt lat="45.77986" lon="6.43316">
        <ele>1428.5</ele>
        <time>2010-08-19T11:25:41Z</time>
      </trkpt>
      <trkpt lat="45.7797" lon="6.43319">
        <ele>1424.6</ele>
        <time>2010-08-19T11:26:00Z</time>
      </trkpt>
      <trkpt lat="45.77962" lon="6.43312">
        <ele>1418.5</ele>
        <time>2010-08-19T11:26:31Z</time>
      </trkpt>
      <trkpt lat="45.77948" lon="6.43307">
        <ele>1409.4</ele>
        <time>2010-08-19T11:26:40Z</time>
      </trkpt>
      <trkpt lat="45.77936" lon="6.43297">
        <ele>1398.1</ele>
        <time>2010-08-19T11:26:45Z</time>
      </trkpt>
      <trkpt lat="45.77919" lon="6.43298">
        <ele>1391.5</ele>
        <time>2010-08-19T11:26:52Z</time>
      </trkpt>
      <trkpt lat="45.77897" lon="6.43292">
        <ele>1378.4</ele>
        <time>2010-08-19T11:27:05Z</time>
      </trkpt>
      <trkpt lat="45.77884" lon="6.43271">
        <ele>1361.6</ele>
        <time>2010-08-19T11:27:20Z</time>
      </trkpt>
      <trkpt lat="45.77876" lon="6.43267">
        <ele>1355.9</ele>
        <time>2010-08-19T11:27:23Z</time>
      </trkpt>
      <trkpt lat="45.77865" lon="6.43238">
        <ele>1336.6</ele>
        <time>2010-08-19T11:27:45Z</time>
      </trkpt>
      <trkpt lat="45.77876" lon="6.4322">
        <ele>1330.7</ele>
        <time>2010-08-19T11:28:02Z</time>
      </trkpt>
      <trkpt lat="45.77884" lon="6.43217">
        <ele>1332</ele>
        <time>2010-08-19T11:28:08Z</time>
      </trkpt>
      <trkpt lat="45.77892" lon="6.43198">
        <ele>1325.5</ele>
        <time>2010-08-19T11:28:27Z</time>
      </trkpt>
      <trkpt lat="45.77881" lon="6.43167">
        <ele>1305.3</ele>
        <time>2010-08-19T11:28:54Z</time>
      </trkpt>
      <trkpt lat="45.7787" lon="6.43149">
        <ele>1290.6</ele>
        <time>2010-08-19T11:29:02Z</time>
      </trkpt>
      <trkpt lat="45.77871" lon="6.43125">
        <ele>1278.5</ele>
        <time>2010-08-19T11:29:23Z</time>
      </trkpt>
      <trkpt lat="45.77878" lon="6.43118">
        <ele>1282.2</ele>
        <time>2010-08-19T11:29:42Z</time>
      </trkpt>
      <trkpt lat="45.7787" lon="6.43097">
        <ele>1275</ele>
        <time>2010-08-19T11:30:26Z</time>
      </trkpt>
      <trkpt lat="45.77869" lon="6.43084">
        <ele>1273.2</ele>
        <time>2010-08-19T11:31:00Z</time>
      </trkpt>
      <trkpt lat="45.77884" lon="6.43079">
        <ele>1282.3</ele>
        <time>2010-08-19T11:31:35Z</time>
      </trkpt>
      <trkpt lat="45.77893" lon="6.43049">
        <ele>1282.2</ele>
        <time>2010-08-19T11:32:41Z</time>
      </trkpt>
      <trkpt lat="45.7791" lon="6.43042">
        <ele>1286.4</ele>
        <time>2010-08-19T11:33:08Z</time>
      </trkpt>
      <trkpt lat="45.77926" lon="6.43037">
        <ele>1288.5</ele>
        <time>2010-08-19T11:33:30Z</time>
      </trkpt>
      <trkpt lat="45.77938" lon="6.43019">
        <ele>1282.2</ele>
        <time>2010-08-19T11:33:54Z</time>
      </trkpt>
      <trkpt lat="45.77946" lon="6.43011">
        <ele>1281.3</ele>
        <time>2010-08-19T11:34:16Z</time>
      </trkpt>
      <trkpt lat="45.77944" lon="6.42988">
        <ele>1268.5</ele>
        <time>2010-08-19T11:34:59Z</time>
      </trkpt>
      <trkpt lat="45.77941" lon="6.42975">
        <ele>1259.4</ele>
        <time>2010-08-19T11:35:18Z</time>
      </trkpt>
      <trkpt lat="45.77937" lon="6.42951">
        <ele>1242.9</ele>
        <time>2010-08-19T11:35:43Z</time>
      </trkpt>
      <trkpt lat="45.77953" lon="6.42943">
        <ele>1250.9</ele>
        <time>2010-08-19T11:36:13Z</time>
      </trkpt>
      <trkpt lat="45.77958" lon="6.42932">
        <ele>1246.5</ele>
        <time>2010-08-19T11:36:27Z</time>
      </trkpt>
      <trkpt lat="45.77962" lon="6.42909">
        <ele>1232.3</ele>
        <time>2010-08-19T11:36:47Z</time>
      </trkpt>
      <trkpt lat="45.77958" lon="6.42886">
        <ele>1216.3</ele>
        <time>2010-08-19T11:36:57Z</time>
      </trkpt>
      <trkpt lat="45.77972" lon="6.42875">
        <ele>1212.2</ele>
        <time>2010-08-19T11:37:08Z</time>
      </trkpt>
      <trkpt lat="45.77974" lon="6.42852">
        <ele>1201.6</ele>
        <time>2010-08-19T11:37:25Z</time>
      </trkpt>
      <trkpt lat="45.77988" lon="6.42825">
        <ele>1192.5</ele>
        <time>2010-08-19T11:38:12Z</time>
      </trkpt>
      <trkpt lat="45.77976" lon="6.42798">
        <ele>1175.4</ele>
        <time>2010-08-19T11:38:19Z</time>
      </trkpt>
      <trkpt lat="45.77971" lon="6.42778">
        <ele>1164.6</ele>
        <time>2010-08-19T11:38:32Z</time>
      </trkpt>
      <trkpt lat="45.77972" lon="6.42762">
        <ele>1158.3</ele>
        <time>2010-08-19T11:38:41Z</time>
      </trkpt>
      <trkpt lat="45.7799" lon="6.42747">
        <ele>1157.3</ele>
        <time>2010-08-19T11:38:50Z</time>
      </trkpt>
      <trkpt lat="45.77983" lon="6.42725">
        <ele>1145.7</ele>
        <time>2010-08-19T11:38:58Z</time>
      </trkpt>
      <trkpt lat="45.77981" lon="6.427">
        <ele>1134.6</ele>
        <time>2010-08-19T11:39:26Z</time>
      </trkpt>
      <trkpt lat="45.77967" lon="6.42687">
        <ele>1125.8</ele>
        <time>2010-08-19T11:39:39Z</time>
      </trkpt>
      <trkpt lat="45.77968" lon="6.42675">
        <ele>1120.9</ele>
        <time>2010-08-19T11:41:01Z</time>
      </trkpt>
      <trkpt lat="45.77951" lon="6.4267">
        <ele>1111.1</ele>
        <time>2010-08-19T11:41:47Z</time>
      </trkpt>
      <trkpt lat="45.77937" lon="6.42671">
        <ele>1099.7</ele>
        <time>2010-08-19T11:41:51Z</time>
      </trkpt>
      <trkpt lat="45.77925" lon="6.4269">
        <ele>1097.3</ele>
        <time>2010-08-19T11:42:26Z</time>
      </trkpt>
      <trkpt lat="45.7793" lon="6.42668">
        <ele>1093.2</ele>
        <time>2010-08-19T11:43:05Z</time>
      </trkpt>
      <trkpt lat="45.77934" lon="6.42657">
        <ele>1092</ele>
        <time>2010-08-19T11:43:17Z</time>
      </trkpt>
      <trkpt lat="45.77923" lon="6.4264">
        <ele>1076.4</ele>
        <time>2010-08-19T11:43:33Z</time>
      </trkpt>
      <trkpt lat="45.77932" lon="6.42622">
        <ele>1076.3</ele>
        <time>2010-08-19T11:43:53Z</time>
      </trkpt>
      <trkpt lat="45.77918" lon="6.42613">
        <ele>1060.9</ele>
        <time>2010-08-19T11:43:58Z</time>
      </trkpt>
      <trkpt lat="45.77927" lon="6.42598">
        <ele>1062.3</ele>
        <time>2010-08-19T11:44:18Z</time>
      </trkpt>
      <trkpt lat="45.77919" lon="6.42584">
        <ele>1050.6</ele>
        <time>2010-08-19T11:44:24Z</time>
      </trkpt>
      <trkpt lat="45.77903" lon="6.42583">
        <ele>1038.5</ele>
        <time>2010-08-19T11:44:34Z</time>
      </trkpt>
      <trkpt lat="45.77883" lon="6.42599">
        <ele>1028.9</ele>
        <time>2010-08-19T11:44:44Z</time>
      </trkpt>
      <trkpt lat="45.7786" lon="6.42595">
        <ele>1011.9</ele>
        <time>2010-08-19T11:45:02Z</time>
      </trkpt>
      <trkpt lat="45.77843" lon="6.42589">
        <ele>999.2</ele>
        <time>2010-08-19T11:45:29Z</time>
      </trkpt>
      <trkpt lat="45.77841" lon="6.42557">
        <ele>986.6</ele>
        <time>2010-08-19T11:46:10Z</time>
      </trkpt>
      <trkpt lat="45.7784" lon="6.42537">
        <ele>981</ele>
        <time>2010-08-19T11:46:31Z</time>
      </trkpt>
      <trkpt lat="45.77833" lon="6.4251">
        <ele>976.3</ele>
        <time>2010-08-19T11:46:50Z</time>
      </trkpt>
      <trkpt lat="45.77822" lon="6.4249">
        <ele>967</ele>
        <time>2010-08-19T11:47:24Z</time>
      </trkpt>
      <trkpt lat="45.77807" lon="6.4249">
        <ele>953.2</ele>
        <time>2010-08-19T11:47:43Z</time>
      </trkpt>
      <trkpt lat="45.77785" lon="6.42498">
        <ele>937.5</ele>
        <time>2010-08-19T11:48:00Z</time>
      </trkpt>
      <trkpt lat="45.77765" lon="6.42502">
        <ele>929.7</ele>
        <time>2010-08-19T11:48:10Z</time>
      </trkpt>
      <trkpt lat="45.77767" lon="6.42478">
        <ele>926.3</ele>
        <time>2010-08-19T11:48:40Z</time>
      </trkpt>
      <trkpt lat="45.77751" lon="6.42485">
        <ele>920.5</ele>
        <time>2010-08-19T11:48:52Z</time>
      </trkpt>
      <trkpt lat="45.77737" lon="6.42505">
        <ele>918.9</ele>
        <time>2010-08-19T11:48:58Z</time>
      </trkpt>
      <trkpt lat="45.77726" lon="6.42526">
        <ele>919.5</ele>
        <time>2010-08-19T11:49:05Z</time>
      </trkpt>
      <trkpt lat="45.77727" lon="6.42524">
        <ele>919.6</ele>
        <time>2010-08-19T11:49:40Z</time>
      </trkpt>
      <trkpt lat="45.77719" lon="6.42507">
        <ele>912</ele>
        <time>2010-08-19T11:49:48Z</time>
      </trkpt>
      <trkpt lat="45.77699" lon="6.42491">
        <ele>902.3</ele>
        <time>2010-08-19T11:50:02Z</time>
      </trkpt>
      <trkpt lat="45.77671" lon="6.42489">
        <ele>898.2</ele>
        <time>2010-08-19T11:50:11Z</time>
      </trkpt>
      <trkpt lat="45.77649" lon="6.42482">
        <ele>894.2</ele>
        <time>2010-08-19T11:50:17Z</time>
      </trkpt>
      <trkpt lat="45.77629" lon="6.42498">
        <ele>894.8</ele>
        <time>2010-08-19T11:50:25Z</time>
      </trkpt>
      <trkpt lat="45.77618" lon="6.42484">
        <ele>891</ele>
        <time>2010-08-19T11:50:34Z</time>
      </trkpt>
      <trkpt lat="45.77612" lon="6.42476">
        <ele>888.9</ele>
        <time>2010-08-19T11:50:36Z</time>
      </trkpt>
      <trkpt lat="45.77592" lon="6.42459">
        <ele>883.6</ele>
        <time>2010-08-19T11:50:45Z</time>
      </trkpt>
      <trkpt lat="45.7758" lon="6.42448">
        <ele>880.5</ele>
        <time>2010-08-19T11:50:51Z</time>
      </trkpt>
      <trkpt lat="45.77571" lon="6.42421">
        <ele>875.4</ele>
        <time>2010-08-19T11:50:57Z</time>
      </trkpt>
      <trkpt lat="45.7756" lon="6.42401">
        <ele>870.7</ele>
        <time>2010-08-19T11:51:02Z</time>
      </trkpt>
      <trkpt lat="45.77555" lon="6.42391">
        <ele>868.5</ele>
        <time>2010-08-19T11:51:04Z</time>
      </trkpt>
      <trkpt lat="45.77562" lon="6.42373">
        <ele>866.4</ele>
        <time>2010-08-19T11:51:20Z</time>
      </trkpt>
      <trkpt lat="45.77575" lon="6.42346">
        <ele>862.8</ele>
        <time>2010-08-19T11:51:27Z</time>
      </trkpt>
      <trkpt lat="45.7759" lon="6.42306">
        <ele>856.1</ele>
        <time>2010-08-19T11:51:35Z</time>
      </trkpt>
      <trkpt lat="45.77597" lon="6.42286">
        <ele>852</ele>
        <time>2010-08-19T11:51:47Z</time>
      </trkpt>
      <trkpt lat="45.77588" lon="6.42281">
        <ele>849.6</ele>
        <time>2010-08-19T11:51:57Z</time>
      </trkpt>
      <trkpt lat="45.77569" lon="6.42237">
        <ele>835.2</ele>
        <time>2010-08-19T11:53:11Z</time>
      </trkpt>
      <trkpt lat="45.77552" lon="6.42221">
        <ele>828.6</ele>
        <time>2010-08-19T11:53:27Z</time>
      </trkpt>
      <trkpt lat="45.77542" lon="6.42206">
        <ele>823</ele>
        <time>2010-08-19T11:53:39Z</time>
      </trkpt>
      <trkpt lat="45.77554" lon="6.42188">
        <ele>819.7</ele>
        <time>2010-08-19T11:53:59Z</time>
      </trkpt>
      <trkpt lat="45.77559" lon="6.42176">
        <ele>818.1</ele>
        <time>2010-08-19T11:54:14Z</time>
      </trkpt>
      <trkpt lat="45.77551" lon="6.42156">
        <ele>809.3</ele>
        <time>2010-08-19T11:54:42Z</time>
      </trkpt>
      <trkpt lat="45.77546" lon="6.42147">
        <ele>803.6</ele>
        <time>2010-08-19T11:54:55Z</time>
      </trkpt>
      <trkpt lat="45.77526" lon="6.42125">
        <ele>791.8</ele>
        <time>2010-08-19T11:55:07Z</time>
      </trkpt>
      <trkpt lat="45.77516" lon="6.42127">
        <ele>791.5</ele>
        <time>2010-08-19T11:55:18Z</time>
      </trkpt>
      <trkpt lat="45.77502" lon="6.42115">
        <ele>789.7</ele>
        <time>2010-08-19T11:55:30Z</time>
      </trkpt>
      <trkpt lat="45.77492" lon="6.42089">
        <ele>786.3</ele>
        <time>2010-08-19T11:56:05Z</time>
      </trkpt>
      <trkpt lat="45.77469" lon="6.42064">
        <ele>773.6</ele>
        <time>2010-08-19T11:56:11Z</time>
      </trkpt>
      <trkpt lat="45.77456" lon="6.42054">
        <ele>765.3</ele>
        <time>2010-08-19T11:56:16Z</time>
      </trkpt>
      <trkpt lat="45.77436" lon="6.42056">
        <ele>764.4</ele>
        <time>2010-08-19T11:56:22Z</time>
      </trkpt>
      <trkpt lat="45.7742" lon="6.42055">
        <ele>763</ele>
        <time>2010-08-19T11:56:28Z</time>
      </trkpt>
      <trkpt lat="45.77397" lon="6.42028">
        <ele>756.6</ele>
        <time>2010-08-19T11:56:37Z</time>
      </trkpt>
      <trkpt lat="45.77383" lon="6.42004">
        <ele>749.3</ele>
        <time>2010-08-19T11:56:44Z</time>
      </trkpt>
      <trkpt lat="45.77367" lon="6.42006">
        <ele>746.6</ele>
        <time>2010-08-19T11:56:57Z</time>
      </trkpt>
      <trkpt lat="45.77354" lon="6.41981">
        <ele>739.2</ele>
        <time>2010-08-19T11:57:05Z</time>
      </trkpt>
      <trkpt lat="45.77331" lon="6.41955">
        <ele>731.9</ele>
        <time>2010-08-19T11:57:33Z</time>
      </trkpt>
      <trkpt lat="45.77318" lon="6.41953">
        <ele>730.5</ele>
        <time>2010-08-19T11:57:52Z</time>
      </trkpt>
      <trkpt lat="45.77305" lon="6.41917">
        <ele>719.6</ele>
        <time>2010-08-19T11:58:02Z</time>
      </trkpt>
      <trkpt lat="45.77303" lon="6.41902">
        <ele>715.2</ele>
        <time>2010-08-19T11:58:22Z</time>
      </trkpt>
      <trkpt lat="45.77294" lon="6.41891">
        <ele>708.8</ele>
        <time>2010-08-19T11:58:25Z</time>
      </trkpt>
      <trkpt lat="45.77279" lon="6.41884">
        <ele>703.7</ele>
        <time>2010-08-19T11:58:31Z</time>
      </trkpt>
      <trkpt lat="45.7727" lon="6.41885">
        <ele>702.8</ele>
        <time>2010-08-19T11:58:38Z</time>
      </trkpt>
      <trkpt lat="45.77258" lon="6.41873">
        <ele>697.6</ele>
        <time>2010-08-19T11:58:46Z</time>
      </trkpt>
      <trkpt lat="45.77237" lon="6.41879">
        <ele>695.7</ele>
        <time>2010-08-19T11:58:57Z</time>
      </trkpt>
      <trkpt lat="45.77215" lon="6.41879">
        <ele>691.9</ele>
        <time>2010-08-19T11:59:02Z</time>
      </trkpt>
      <trkpt lat="45.77204" lon="6.4187">
        <ele>688</ele>
        <time>2010-08-19T11:59:05Z</time>
      </trkpt>
      <trkpt lat="45.77191" lon="6.41856">
        <ele>682.8</ele>
        <time>2010-08-19T11:59:12Z</time>
      </trkpt>
      <trkpt lat="45.77175" lon="6.41827">
        <ele>673.8</ele>
        <time>2010-08-19T11:59:21Z</time>
      </trkpt>
      <trkpt lat="45.77169" lon="6.41818">
        <ele>670.8</ele>
        <time>2010-08-19T11:59:24Z</time>
      </trkpt>
      <trkpt lat="45.77147" lon="6.41808">
        <ele>664.4</ele>
        <time>2010-08-19T11:59:33Z</time>
      </trkpt>
      <trkpt lat="45.77139" lon="6.41776">
        <ele>661.3</ele>
        <time>2010-08-19T11:59:47Z</time>
      </trkpt>
      <trkpt lat="45.77132" lon="6.41771">
        <ele>660.1</ele>
        <time>2010-08-19T11:59:52Z</time>
      </trkpt>
      <trkpt lat="45.7713" lon="6.4175">
        <ele>661.3</ele>
        <time>2010-08-19T12:00:03Z</time>
      </trkpt>
      <trkpt lat="45.77122" lon="6.41737">
        <ele>660.3</ele>
        <time>2010-08-19T12:00:13Z</time>
      </trkpt>
      <trkpt lat="45.77107" lon="6.41742">
        <ele>656.7</ele>
        <time>2010-08-19T12:00:18Z</time>
      </trkpt>
      <trkpt lat="45.77094" lon="6.41735">
        <ele>654.2</ele>
        <time>2010-08-19T12:00:31Z</time>
      </trkpt>
      <trkpt lat="45.77084" lon="6.41731">
        <ele>652.1</ele>
        <time>2010-08-19T12:00:38Z</time>
      </trkpt>
      <trkpt lat="45.7707" lon="6.41733">
        <ele>648.7</ele>
        <time>2010-08-19T12:00:44Z</time>
      </trkpt>
      <trkpt lat="45.77055" lon="6.41729">
        <ele>645.5</ele>
        <time>2010-08-19T12:00:49Z</time>
      </trkpt>
      <trkpt lat="45.77035" lon="6.41743">
        <ele>641.1</ele>
        <time>2010-08-19T12:00:57Z</time>
      </trkpt>
      <trkpt lat="45.77012" lon="6.41735">
        <ele>637.5</ele>
        <time>2010-08-19T12:01:06Z</time>
      </trkpt>
      <trkpt lat="45.76992" lon="6.4174">
        <ele>634.3</ele>
        <time>2010-08-19T12:01:13Z</time>
      </trkpt>
      <trkpt lat="45.76976" lon="6.41744">
        <ele>631.8</ele>
        <time>2010-08-19T12:01:17Z</time>
      </trkpt>
      <trkpt lat="45.76948" lon="6.41733">
        <ele>626.2</ele>
        <time>2010-08-19T12:01:27Z</time>
      </trkpt>
      <trkpt lat="45.76944" lon="6.41731">
        <ele>625</ele>
        <time>2010-08-19T12:01:28Z</time>
      </trkpt>
      <trkpt lat="45.76925" lon="6.41717">
        <ele>618.9</ele>
        <time>2010-08-19T12:01:32Z</time>
      </trkpt>
      <trkpt lat="45.76915" lon="6.41715">
        <ele>616</ele>
        <time>2010-08-19T12:01:35Z</time>
      </trkpt>
      <trkpt lat="45.76894" lon="6.41718">
        <ele>610.8</ele>
        <time>2010-08-19T12:01:41Z</time>
      </trkpt>
      <trkpt lat="45.76895" lon="6.41706">
        <ele>609.6</ele>
        <time>2010-08-19T12:01:45Z</time>
      </trkpt>
      <trkpt lat="45.76885" lon="6.41691">
        <ele>607.1</ele>
        <time>2010-08-19T12:01:59Z</time>
      </trkpt>
      <trkpt lat="45.76877" lon="6.41692">
        <ele>604.6</ele>
        <time>2010-08-19T12:02:02Z</time>
      </trkpt>
      <trkpt lat="45.76855" lon="6.41689">
        <ele>602.8</ele>
        <time>2010-08-19T12:02:10Z</time>
      </trkpt>
      <trkpt lat="45.76833" lon="6.41676">
        <ele>600.3</ele>
        <time>2010-08-19T12:02:16Z</time>
      </trkpt>
      <trkpt lat="45.76813" lon="6.41655">
        <ele>595.6</ele>
        <time>2010-08-19T12:02:22Z</time>
      </trkpt>
      <trkpt lat="45.76807" lon="6.41646">
        <ele>593.4</ele>
        <time>2010-08-19T12:02:24Z</time>
      </trkpt>
      <trkpt lat="45.76793" lon="6.41625">
        <ele>587.3</ele>
        <time>2010-08-19T12:02:29Z</time>
      </trkpt>
      <trkpt lat="45.76781" lon="6.41601">
        <ele>584.8</ele>
        <time>2010-08-19T12:02:33Z</time>
      </trkpt>
      <trkpt lat="45.76775" lon="6.41588">
        <ele>583.3</ele>
        <time>2010-08-19T12:02:35Z</time>
      </trkpt>
      <trkpt lat="45.76757" lon="6.41568">
        <ele>579.5</ele>
        <time>2010-08-19T12:02:40Z</time>
      </trkpt>
      <trkpt lat="45.76741" lon="6.41562">
        <ele>576.8</ele>
        <time>2010-08-19T12:02:43Z</time>
      </trkpt>
      <trkpt lat="45.76728" lon="6.4155">
        <ele>573.2</ele>
        <time>2010-08-19T12:02:48Z</time>
      </trkpt>
      <trkpt lat="45.76712" lon="6.41541">
        <ele>569.5</ele>
        <time>2010-08-19T12:03:01Z</time>
      </trkpt>
      <trkpt lat="45.76692" lon="6.41532">
        <ele>569</ele>
        <time>2010-08-19T12:03:08Z</time>
      </trkpt>
      <trkpt lat="45.76684" lon="6.4153">
        <ele>569</ele>
        <time>2010-08-19T12:03:12Z</time>
      </trkpt>
      <trkpt lat="45.76668" lon="6.41524">
        <ele>568.8</ele>
        <time>2010-08-19T12:03:20Z</time>
      </trkpt>
      <trkpt lat="45.76651" lon="6.41533">
        <ele>570</ele>
        <time>2010-08-19T12:03:39Z</time>
      </trkpt>
      <trkpt lat="45.76637" lon="6.41527">
        <ele>569.6</ele>
        <time>2010-08-19T12:03:47Z</time>
      </trkpt>
      <trkpt lat="45.76623" lon="6.41513">
        <ele>567.6</ele>
        <time>2010-08-19T12:03:58Z</time>
      </trkpt>
      <trkpt lat="45.76608" lon="6.41501">
        <ele>565.9</ele>
        <time>2010-08-19T12:05:05Z</time>
      </trkpt>
      <trkpt lat="45.76595" lon="6.41484">
        <ele>563</ele>
        <time>2010-08-19T12:05:47Z</time>
      </trkpt>
      <trkpt lat="45.7658" lon="6.41461">
        <ele>558.4</ele>
        <time>2010-08-19T12:06:23Z</time>
      </trkpt>
      <trkpt lat="45.76568" lon="6.41453">
        <ele>557.2</ele>
        <time>2010-08-19T12:06:27Z</time>
      </trkpt>
      <trkpt lat="45.76547" lon="6.41446">
        <ele>556</ele>
        <time>2010-08-19T12:06:33Z</time>
      </trkpt>
      <trkpt lat="45.76515" lon="6.41436">
        <ele>556</ele>
        <time>2010-08-19T12:06:41Z</time>
      </trkpt>
      <trkpt lat="45.76493" lon="6.41422">
        <ele>554.7</ele>
        <time>2010-08-19T12:06:47Z</time>
      </trkpt>
      <trkpt lat="45.76485" lon="6.41417">
        <ele>554</ele>
        <time>2010-08-19T12:06:49Z</time>
      </trkpt>
      <trkpt lat="45.7646" lon="6.41402">
        <ele>551.4</ele>
        <time>2010-08-19T12:06:55Z</time>
      </trkpt>
      <trkpt lat="45.76437" lon="6.41387">
        <ele>546.2</ele>
        <time>2010-08-19T12:07:01Z</time>
      </trkpt>
      <trkpt lat="45.76412" lon="6.41369">
        <ele>540.6</ele>
        <time>2010-08-19T12:07:07Z</time>
      </trkpt>
      <trkpt lat="45.76394" lon="6.41357">
        <ele>537.1</ele>
        <time>2010-08-19T12:07:11Z</time>
      </trkpt>
      <trkpt lat="45.76375" lon="6.41356">
        <ele>535</ele>
        <time>2010-08-19T12:07:21Z</time>
      </trkpt>
      <trkpt lat="45.76363" lon="6.41336">
        <ele>529.9</ele>
        <time>2010-08-19T12:07:26Z</time>
      </trkpt>
      <trkpt lat="45.76343" lon="6.4131">
        <ele>523.1</ele>
        <time>2010-08-19T12:07:34Z</time>
      </trkpt>
      <trkpt lat="45.76322" lon="6.41283">
        <ele>517.6</ele>
        <time>2010-08-19T12:07:40Z</time>
      </trkpt>
      <trkpt lat="45.76309" lon="6.41262">
        <ele>515</ele>
        <time>2010-08-19T12:07:44Z</time>
      </trkpt>
      <trkpt lat="45.76297" lon="6.41245">
        <ele>512.9</ele>
        <time>2010-08-19T12:07:47Z</time>
      </trkpt>
      <trkpt lat="45.76289" lon="6.41229">
        <ele>511.5</ele>
        <time>2010-08-19T12:07:50Z</time>
      </trkpt>
      <trkpt lat="45.76285" lon="6.41207">
        <ele>510.4</ele>
        <time>2010-08-19T12:08:31Z</time>
      </trkpt>
      <trkpt lat="45.76304" lon="6.41147">
        <ele>508.9</ele>
        <time>2010-08-19T12:09:01Z</time>
      </trkpt>
      <trkpt lat="45.76309" lon="6.41138">
        <ele>509.2</ele>
        <time>2010-08-19T12:09:04Z</time>
      </trkpt>
      <trkpt lat="45.76321" lon="6.41116">
        <ele>510.3</ele>
        <time>2010-08-19T12:09:09Z</time>
      </trkpt>
      <trkpt lat="45.76325" lon="6.41105">
        <ele>511.2</ele>
        <time>2010-08-19T12:09:11Z</time>
      </trkpt>
      <trkpt lat="45.76329" lon="6.4108">
        <ele>512.5</ele>
        <time>2010-08-19T12:09:42Z</time>
      </trkpt>
      <trkpt lat="45.76326" lon="6.4106">
        <ele>512.2</ele>
        <time>2010-08-19T12:09:49Z</time>
      </trkpt>
      <trkpt lat="45.76329" lon="6.41037">
        <ele>513.5</ele>
        <time>2010-08-19T12:09:58Z</time>
      </trkpt>
      <trkpt lat="45.76325" lon="6.41003">
        <ele>514.1</ele>
        <time>2010-08-19T12:10:13Z</time>
      </trkpt>
      <trkpt lat="45.76328" lon="6.40992">
        <ele>515.5</ele>
        <time>2010-08-19T12:10:20Z</time>
      </trkpt>
      <trkpt lat="45.76341" lon="6.40975">
        <ele>519.9</ele>
        <time>2010-08-19T12:10:44Z</time>
      </trkpt>
      <trkpt lat="45.76351" lon="6.40941">
        <ele>524.9</ele>
        <time>2010-08-19T12:11:25Z</time>
      </trkpt>
      <trkpt lat="45.76354" lon="6.40917">
        <ele>527.4</ele>
        <time>2010-08-19T12:11:40Z</time>
      </trkpt>
      <trkpt lat="45.76358" lon="6.40906">
        <ele>529.4</ele>
        <time>2010-08-19T12:11:49Z</time>
      </trkpt>
      <trkpt lat="45.76358" lon="6.40881">
        <ele>531.4</ele>
        <time>2010-08-19T12:12:11Z</time>
      </trkpt>
      <trkpt lat="45.76352" lon="6.4086">
        <ele>530.6</ele>
        <time>2010-08-19T12:12:48Z</time>
      </trkpt>
      <trkpt lat="45.76349" lon="6.40826">
        <ele>531</ele>
        <time>2010-08-19T12:13:00Z</time>
      </trkpt>
      <trkpt lat="45.76351" lon="6.40789">
        <ele>533</ele>
        <time>2010-08-19T12:13:14Z</time>
      </trkpt>
      <trkpt lat="45.76353" lon="6.40766">
        <ele>533.6</ele>
        <time>2010-08-19T12:13:24Z</time>
      </trkpt>
      <trkpt lat="45.76359" lon="6.40744">
        <ele>535.4</ele>
        <time>2010-08-19T12:13:43Z</time>
      </trkpt>
      <trkpt lat="45.76371" lon="6.40725">
        <ele>538.8</ele>
        <time>2010-08-19T12:14:32Z</time>
      </trkpt>
      <trkpt lat="45.76376" lon="6.40693">
        <ele>539.4</ele>
        <time>2010-08-19T12:15:07Z</time>
      </trkpt>
      <trkpt lat="45.7637" lon="6.40675">
        <ele>537.1</ele>
        <time>2010-08-19T12:15:56Z</time>
      </trkpt>
      <trkpt lat="45.76366" lon="6.40651">
        <ele>534.7</ele>
        <time>2010-08-19T12:16:45Z</time>
      </trkpt>
      <trkpt lat="45.76371" lon="6.40607">
        <ele>533.6</ele>
        <time>2010-08-19T12:17:10Z</time>
      </trkpt>
      <trkpt lat="45.76382" lon="6.40564">
        <ele>532.3</ele>
        <time>2010-08-19T12:17:21Z</time>
      </trkpt>
      <trkpt lat="45.7638" lon="6.40552">
        <ele>530.9</ele>
        <time>2010-08-19T12:17:31Z</time>
      </trkpt>
      <trkpt lat="45.76381" lon="6.40523">
        <ele>529.4</ele>
        <time>2010-08-19T12:17:36Z</time>
      </trkpt>
      <trkpt lat="45.76384" lon="6.40489">
        <ele>528.6</ele>
        <time>2010-08-19T12:17:41Z</time>
      </trkpt>
      <trkpt lat="45.76389" lon="6.40468">
        <ele>528.6</ele>
        <time>2010-08-19T12:17:46Z</time>
      </trkpt>
      <trkpt lat="45.76383" lon="6.40447">
        <ele>526.7</ele>
        <time>2010-08-19T12:17:51Z</time>
      </trkpt>
      <trkpt lat="45.76381" lon="6.40427">
        <ele>525.5</ele>
        <time>2010-08-19T12:17:55Z</time>
      </trkpt>
      <trkpt lat="45.76366" lon="6.40416">
        <ele>521.9</ele>
        <time>2010-08-19T12:18:23Z</time>
      </trkpt>
      <trkpt lat="45.76352" lon="6.40422">
        <ele>518.8</ele>
        <time>2010-08-19T12:18:32Z</time>
      </trkpt>
      <trkpt lat="45.7634" lon="6.40401">
        <ele>514.7</ele>
        <time>2010-08-19T12:18:37Z</time>
      </trkpt>
      <trkpt lat="45.7634" lon="6.40387">
        <ele>514</ele>
        <time>2010-08-19T12:18:39Z</time>
      </trkpt>
      <trkpt lat="45.76345" lon="6.40356">
        <ele>513.2</ele>
        <time>2010-08-19T12:18:43Z</time>
      </trkpt>
      <trkpt lat="45.76353" lon="6.40326">
        <ele>513.6</ele>
        <time>2010-08-19T12:18:47Z</time>
      </trkpt>
      <trkpt lat="45.76349" lon="6.40294">
        <ele>510.5</ele>
        <time>2010-08-19T12:18:51Z</time>
      </trkpt>
      <trkpt lat="45.76351" lon="6.40276">
        <ele>509.8</ele>
        <time>2010-08-19T12:18:53Z</time>
      </trkpt>
      <trkpt lat="45.76358" lon="6.4025">
        <ele>509.7</ele>
        <time>2010-08-19T12:18:56Z</time>
      </trkpt>
      <trkpt lat="45.76382" lon="6.40207">
        <ele>511.3</ele>
        <time>2010-08-19T12:19:02Z</time>
      </trkpt>
      <trkpt lat="45.76386" lon="6.40188">
        <ele>510.9</ele>
        <time>2010-08-19T12:19:04Z</time>
      </trkpt>
      <trkpt lat="45.76388" lon="6.40153">
        <ele>508.9</ele>
        <time>2010-08-19T12:19:08Z</time>
      </trkpt>
      <trkpt lat="45.76397" lon="6.40121">
        <ele>508.6</ele>
        <time>2010-08-19T12:19:12Z</time>
      </trkpt>
      <trkpt lat="45.76399" lon="6.40114">
        <ele>508.4</ele>
        <time>2010-08-19T12:19:13Z</time>
      </trkpt>
      <trkpt lat="45.76407" lon="6.40084">
        <ele>507.7</ele>
        <time>2010-08-19T12:19:17Z</time>
      </trkpt>
      <trkpt lat="45.76418" lon="6.40055">
        <ele>506.9</ele>
        <time>2010-08-19T12:19:22Z</time>
      </trkpt>
      <trkpt lat="45.76431" lon="6.4003">
        <ele>506.6</ele>
        <time>2010-08-19T12:22:00Z</time>
      </trkpt>
      <trkpt lat="45.76447" lon="6.40012">
        <ele>507</ele>
        <time>2010-08-19T12:22:07Z</time>
      </trkpt>
      <trkpt lat="45.76464" lon="6.39989">
        <ele>507.1</ele>
        <time>2010-08-19T12:22:17Z</time>
      </trkpt>
      <trkpt lat="45.7647" lon="6.39964">
        <ele>505</ele>
        <time>2010-08-19T12:22:28Z</time>
      </trkpt>
      <trkpt lat="45.76481" lon="6.39936">
        <ele>504.8</ele>
        <time>2010-08-19T12:22:32Z</time>
      </trkpt>
      <trkpt lat="45.76496" lon="6.39917">
        <ele>506.2</ele>
        <time>2010-08-19T12:22:36Z</time>
      </trkpt>
      <trkpt lat="45.76506" lon="6.39886">
        <ele>505.6</ele>
        <time>2010-08-19T12:22:44Z</time>
      </trkpt>
      <trkpt lat="45.76517" lon="6.3985">
        <ele>505.9</ele>
        <time>2010-08-19T12:22:53Z</time>
      </trkpt>
      <trkpt lat="45.76523" lon="6.39834">
        <ele>506.5</ele>
        <time>2010-08-19T12:22:57Z</time>
      </trkpt>
      <trkpt lat="45.76543" lon="6.39797">
        <ele>508.6</ele>
        <time>2010-08-19T12:23:09Z</time>
      </trkpt>
      <trkpt lat="45.76541" lon="6.39783">
        <ele>507.8</ele>
        <time>2010-08-19T12:23:13Z</time>
      </trkpt>
      <trkpt lat="45.76529" lon="6.3976">
        <ele>505.6</ele>
        <time>2010-08-19T12:23:18Z</time>
      </trkpt>
      <trkpt lat="45.76514" lon="6.3975">
        <ele>503.4</ele>
        <time>2010-08-19T12:23:22Z</time>
      </trkpt>
      <trkpt lat="45.76504" lon="6.39731">
        <ele>502.1</ele>
        <time>2010-08-19T12:23:53Z</time>
      </trkpt>
      <trkpt lat="45.76489" lon="6.39727">
        <ele>500.2</ele>
        <time>2010-08-19T12:24:01Z</time>
      </trkpt>
      <trkpt lat="45.76475" lon="6.39714">
        <ele>498.8</ele>
        <time>2010-08-19T12:24:10Z</time>
      </trkpt>
      <trkpt lat="45.76466" lon="6.39707">
        <ele>497.8</ele>
        <time>2010-08-19T12:24:15Z</time>
      </trkpt>
      <trkpt lat="45.7644" lon="6.39709">
        <ele>493.4</ele>
        <time>2010-08-19T12:24:24Z</time>
      </trkpt>
      <trkpt lat="45.76431" lon="6.39707">
        <ele>491.7</ele>
        <time>2010-08-19T12:24:27Z</time>
      </trkpt>
      <trkpt lat="45.76416" lon="6.3971">
        <ele>488.8</ele>
        <time>2010-08-19T12:24:34Z</time>
      </trkpt>
      <trkpt lat="45.76401" lon="6.39714">
        <ele>485.9</ele>
        <time>2010-08-19T12:24:38Z</time>
      </trkpt>
      <trkpt lat="45.7638" lon="6.39721">
        <ele>481.7</ele>
        <time>2010-08-19T12:24:43Z</time>
      </trkpt>
      <trkpt lat="45.76361" lon="6.39732">
        <ele>478.6</ele>
        <time>2010-08-19T12:24:48Z</time>
      </trkpt>
      <trkpt lat="45.76347" lon="6.39753">
        <ele>476.6</ele>
        <time>2010-08-19T12:24:54Z</time>
      </trkpt>
      <trkpt lat="45.76344" lon="6.39762">
        <ele>476.2</ele>
        <time>2010-08-19T12:24:56Z</time>
      </trkpt>
      <trkpt lat="45.76336" lon="6.3979">
        <ele>475.3</ele>
        <time>2010-08-19T12:25:03Z</time>
      </trkpt>
      <trkpt lat="45.76327" lon="6.39763">
        <ele>474.3</ele>
        <time>2010-08-19T12:25:11Z</time>
      </trkpt>
      <trkpt lat="45.76313" lon="6.39748">
        <ele>472.6</ele>
        <time>2010-08-19T12:25:15Z</time>
      </trkpt>
      <trkpt lat="45.76301" lon="6.39745">
        <ele>471</ele>
        <time>2010-08-19T12:25:18Z</time>
      </trkpt>
      <trkpt lat="45.76282" lon="6.39749">
        <ele>468.7</ele>
        <time>2010-08-19T12:25:22Z</time>
      </trkpt>
      <trkpt lat="45.76268" lon="6.39758">
        <ele>467.2</ele>
        <time>2010-08-19T12:25:25Z</time>
      </trkpt>
      <trkpt lat="45.76244" lon="6.39765">
        <ele>464.2</ele>
        <time>2010-08-19T12:25:29Z</time>
      </trkpt>
      <trkpt lat="45.76225" lon="6.39771">
        <ele>461.9</ele>
        <time>2010-08-19T12:25:32Z</time>
      </trkpt>
      <trkpt lat="45.76201" lon="6.39779">
        <ele>458.8</ele>
        <time>2010-08-19T12:25:36Z</time>
      </trkpt>
      <trkpt lat="45.76188" lon="6.39778">
        <ele>457.1</ele>
        <time>2010-08-19T12:25:38Z</time>
      </trkpt>
      <trkpt lat="45.7617" lon="6.39766">
        <ele>454.2</ele>
        <time>2010-08-19T12:25:42Z</time>
      </trkpt>
      <trkpt lat="45.76171" lon="6.39746">
        <ele>453.8</ele>
        <time>2010-08-19T12:25:46Z</time>
      </trkpt>
      <trkpt lat="45.7618" lon="6.39717">
        <ele>454.4</ele>
        <time>2010-08-19T12:25:51Z</time>
      </trkpt>
      <trkpt lat="45.76186" lon="6.3969">
        <ele>454.8</ele>
        <time>2010-08-19T12:25:55Z</time>
      </trkpt>
      <trkpt lat="45.76194" lon="6.39663">
        <ele>455.1</ele>
        <time>2010-08-19T12:25:59Z</time>
      </trkpt>
      <trkpt lat="45.76198" lon="6.39643">
        <ele>455</ele>
        <time>2010-08-19T12:26:02Z</time>
      </trkpt>
      <trkpt lat="45.76202" lon="6.39622">
        <ele>455</ele>
        <time>2010-08-19T12:26:05Z</time>
      </trkpt>
      <trkpt lat="45.76208" lon="6.39594">
        <ele>456.2</ele>
        <time>2010-08-19T12:26:09Z</time>
      </trkpt>
      <trkpt lat="45.76212" lon="6.39573">
        <ele>457.1</ele>
        <time>2010-08-19T12:26:12Z</time>
      </trkpt>
      <trkpt lat="45.76218" lon="6.39545">
        <ele>458.2</ele>
        <time>2010-08-19T12:26:16Z</time>
      </trkpt>
      <trkpt lat="45.76226" lon="6.39517">
        <ele>458.7</ele>
        <time>2010-08-19T12:26:20Z</time>
      </trkpt>
      <trkpt lat="45.76234" lon="6.39487">
        <ele>458.8</ele>
        <time>2010-08-19T12:26:24Z</time>
      </trkpt>
      <trkpt lat="45.76235" lon="6.39479">
        <ele>458.8</ele>
        <time>2010-08-19T12:26:25Z</time>
      </trkpt>
      <trkpt lat="45.76238" lon="6.39446">
        <ele>458</ele>
        <time>2010-08-19T12:26:29Z</time>
      </trkpt>
      <trkpt lat="45.76238" lon="6.39408">
        <ele>456.2</ele>
        <time>2010-08-19T12:26:33Z</time>
      </trkpt>
      <trkpt lat="45.76238" lon="6.39379">
        <ele>454.7</ele>
        <time>2010-08-19T12:26:36Z</time>
      </trkpt>
      <trkpt lat="45.76237" lon="6.39359">
        <ele>453.9</ele>
        <time>2010-08-19T12:26:38Z</time>
      </trkpt>
      <trkpt lat="45.76234" lon="6.39317">
        <ele>452</ele>
        <time>2010-08-19T12:26:42Z</time>
      </trkpt>
      <trkpt lat="45.76234" lon="6.39283">
        <ele>451.1</ele>
        <time>2010-08-19T12:26:45Z</time>
      </trkpt>
      <trkpt lat="45.76237" lon="6.39249">
        <ele>451.6</ele>
        <time>2010-08-19T12:26:48Z</time>
      </trkpt>
      <trkpt lat="45.76238" lon="6.39215">
        <ele>451.9</ele>
        <time>2010-08-19T12:26:51Z</time>
      </trkpt>
      <trkpt lat="45.76237" lon="6.39182">
        <ele>451.2</ele>
        <time>2010-08-19T12:26:54Z</time>
      </trkpt>
      <trkpt lat="45.76234" lon="6.39171">
        <ele>450.7</ele>
        <time>2010-08-19T12:26:55Z</time>
      </trkpt>
      <trkpt lat="45.76225" lon="6.39151">
        <ele>449.6</ele>
        <time>2010-08-19T12:26:57Z</time>
      </trkpt>
      <trkpt lat="45.7622" lon="6.39126">
        <ele>448.8</ele>
        <time>2010-08-19T12:26:59Z</time>
      </trkpt>
      <trkpt lat="45.76218" lon="6.39113">
        <ele>448.1</ele>
        <time>2010-08-19T12:27:00Z</time>
      </trkpt>
      <trkpt lat="45.76219" lon="6.39085">
        <ele>446.9</ele>
        <time>2010-08-19T12:27:02Z</time>
      </trkpt>
      <trkpt lat="45.76227" lon="6.39034">
        <ele>445.2</ele>
        <time>2010-08-19T12:27:06Z</time>
      </trkpt>
      <trkpt lat="45.76235" lon="6.38999">
        <ele>444.2</ele>
        <time>2010-08-19T12:27:09Z</time>
      </trkpt>
      <trkpt lat="45.76238" lon="6.38988">
        <ele>444</ele>
        <time>2010-08-19T12:27:10Z</time>
      </trkpt>
      <trkpt lat="45.76256" lon="6.38948">
        <ele>443.4</ele>
        <time>2010-08-19T12:27:14Z</time>
      </trkpt>
      <trkpt lat="45.76275" lon="6.3891">
        <ele>443.2</ele>
        <time>2010-08-19T12:27:18Z</time>
      </trkpt>
      <trkpt lat="45.76279" lon="6.38899">
        <ele>443</ele>
        <time>2010-08-19T12:27:19Z</time>
      </trkpt>
      <trkpt lat="45.76292" lon="6.38857">
        <ele>441.9</ele>
        <time>2010-08-19T12:27:23Z</time>
      </trkpt>
      <trkpt lat="45.76304" lon="6.38828">
        <ele>441.3</ele>
        <time>2010-08-19T12:27:26Z</time>
      </trkpt>
      <trkpt lat="45.76323" lon="6.38792">
        <ele>441</ele>
        <time>2010-08-19T12:27:30Z</time>
      </trkpt>
      <trkpt lat="45.76335" lon="6.38764">
        <ele>440.4</ele>
        <time>2010-08-19T12:27:33Z</time>
      </trkpt>
      <trkpt lat="45.7635" lon="6.38726">
        <ele>439.6</ele>
        <time>2010-08-19T12:27:37Z</time>
      </trkpt>
      <trkpt lat="45.76365" lon="6.38691">
        <ele>439.4</ele>
        <time>2010-08-19T12:27:41Z</time>
      </trkpt>
      <trkpt lat="45.76369" lon="6.38683">
        <ele>439.5</ele>
        <time>2010-08-19T12:27:42Z</time>
      </trkpt>
      <trkpt lat="45.76384" lon="6.3865">
        <ele>439.5</ele>
        <time>2010-08-19T12:27:46Z</time>
      </trkpt>
      <trkpt lat="45.76402" lon="6.3862">
        <ele>439.8</ele>
        <time>2010-08-19T12:27:50Z</time>
      </trkpt>
      <trkpt lat="45.76413" lon="6.38608">
        <ele>440</ele>
        <time>2010-08-19T12:27:52Z</time>
      </trkpt>
      <trkpt lat="45.76434" lon="6.38585">
        <ele>440.5</ele>
        <time>2010-08-19T12:27:56Z</time>
      </trkpt>
      <trkpt lat="45.76443" lon="6.38574">
        <ele>440.6</ele>
        <time>2010-08-19T12:27:58Z</time>
      </trkpt>
      <trkpt lat="45.76459" lon="6.38551">
        <ele>440.5</ele>
        <time>2010-08-19T12:28:02Z</time>
      </trkpt>
      <trkpt lat="45.76472" lon="6.38532">
        <ele>440.1</ele>
        <time>2010-08-19T12:28:05Z</time>
      </trkpt>
      <trkpt lat="45.76482" lon="6.38519">
        <ele>440</ele>
        <time>2010-08-19T12:28:07Z</time>
      </trkpt>
      <trkpt lat="45.76501" lon="6.38487">
        <ele>439.5</ele>
        <time>2010-08-19T12:28:11Z</time>
      </trkpt>
      <trkpt lat="45.76516" lon="6.38463">
        <ele>439.2</ele>
        <time>2010-08-19T12:28:14Z</time>
      </trkpt>
      <trkpt lat="45.76531" lon="6.38439">
        <ele>439</ele>
        <time>2010-08-19T12:28:17Z</time>
      </trkpt>
      <trkpt lat="45.76555" lon="6.38409">
        <ele>438.7</ele>
        <time>2010-08-19T12:28:21Z</time>
      </trkpt>
      <trkpt lat="45.76578" lon="6.38382">
        <ele>438.2</ele>
        <time>2010-08-19T12:28:25Z</time>
      </trkpt>
      <trkpt lat="45.76594" lon="6.38361">
        <ele>438.2</ele>
        <time>2010-08-19T12:28:28Z</time>
      </trkpt>
      <trkpt lat="45.76608" lon="6.38338">
        <ele>438.5</ele>
        <time>2010-08-19T12:28:31Z</time>
      </trkpt>
      <trkpt lat="45.76623" lon="6.38314">
        <ele>438.9</ele>
        <time>2010-08-19T12:28:34Z</time>
      </trkpt>
      <trkpt lat="45.76643" lon="6.38282">
        <ele>439.5</ele>
        <time>2010-08-19T12:28:38Z</time>
      </trkpt>
      <trkpt lat="45.76659" lon="6.38259">
        <ele>439.1</ele>
        <time>2010-08-19T12:28:41Z</time>
      </trkpt>
      <trkpt lat="45.76671" lon="6.38243">
        <ele>438.8</ele>
        <time>2010-08-19T12:28:43Z</time>
      </trkpt>
      <trkpt lat="45.76687" lon="6.38219">
        <ele>438.1</ele>
        <time>2010-08-19T12:28:46Z</time>
      </trkpt>
      <trkpt lat="45.76711" lon="6.38189">
        <ele>438.2</ele>
        <time>2010-08-19T12:28:50Z</time>
      </trkpt>
      <trkpt lat="45.7673" lon="6.38168">
        <ele>438.9</ele>
        <time>2010-08-19T12:28:53Z</time>
      </trkpt>
      <trkpt lat="45.76756" lon="6.38144">
        <ele>439.5</ele>
        <time>2010-08-19T12:28:57Z</time>
      </trkpt>
      <trkpt lat="45.76775" lon="6.38126">
        <ele>439.6</ele>
        <time>2010-08-19T12:29:00Z</time>
      </trkpt>
      <trkpt lat="45.76799" lon="6.381">
        <ele>441.3</ele>
        <time>2010-08-19T12:29:04Z</time>
      </trkpt>
      <trkpt lat="45.76807" lon="6.38084">
        <ele>442.8</ele>
        <time>2010-08-19T12:29:06Z</time>
      </trkpt>
      <trkpt lat="45.76814" lon="6.38065">
        <ele>443.8</ele>
        <time>2010-08-19T12:29:08Z</time>
      </trkpt>
      <trkpt lat="45.76826" lon="6.38023">
        <ele>445.7</ele>
        <time>2010-08-19T12:29:12Z</time>
      </trkpt>
      <trkpt lat="45.76829" lon="6.37991">
        <ele>446.8</ele>
        <time>2010-08-19T12:29:15Z</time>
      </trkpt>
      <trkpt lat="45.76826" lon="6.3796">
        <ele>446.9</ele>
        <time>2010-08-19T12:29:18Z</time>
      </trkpt>
      <trkpt lat="45.76825" lon="6.37938">
        <ele>446.2</ele>
        <time>2010-08-19T12:29:20Z</time>
      </trkpt>
    </trkseg>
  </trk>
</gpx>